Time,TemperatureF,DewpointF,PressureIn,WindDirection,WindDirectionDegrees,WindSpeedMPH,WindSpeedGustMPH,Humidity,HourlyPrecipIn,Conditions,Clouds,dailyrainin,SoftwareType,DateUTC
2013-06-14 00:02:00,66.2,65.6,29.75,East,90,0.0,-999.0,98,0.00,,,0.00,Wunderground v.1.15,2013-06-14 04:02:00,
2013-06-14 00:07:00,66.2,65.6,29.75,East,90,0.0,-999.0,98,0.00,,,0.00,Wunderground v.1.15,2013-06-14 04:07:00,
2013-06-14 00:12:00,66.3,65.4,29.75,NE,45,0.0,-999.0,97,0.00,,,0.00,Wunderground v.1.15,2013-06-14 04:12:00,
2013-06-14 00:17:00,66.6,65.7,29.75,SSE,158,0.0,-999.0,97,0.00,,,0.00,Wunderground v.1.15,2013-06-14 04:17:00,
2013-06-14 00:22:00,66.6,65.4,29.75,SSE,158,0.0,-999.0,96,0.00,,,0.00,Wunderground v.1.15,2013-06-14 04:22:00,
2013-06-14 00:27:00,66.7,65.2,29.75,NE,45,1.0,-999.0,95,0.00,,,0.00,Wunderground v.1.15,2013-06-14 04:27:00,
2013-06-14 00:32:00,66.8,65.0,29.76,ENE,68,1.0,-999.0,94,0.00,,,0.00,Wunderground v.1.15,2013-06-14 04:32:00,
2013-06-14 00:37:00,66.9,64.5,29.76,ESE,113,1.0,-999.0,92,0.00,,,0.00,Wunderground v.1.15,2013-06-14 04:37:00,
2013-06-14 00:42:00,67.1,64.4,29.76,NNW,338,1.0,-999.0,91,0.00,,,0.00,Wunderground v.1.15,2013-06-14 04:42:00,
2013-06-14 00:47:00,67.2,64.2,29.76,NE,45,1.0,-999.0,90,0.00,,,0.00,Wunderground v.1.15,2013-06-14 04:47:00,
2013-06-14 00:52:00,67.4,64.4,29.76,WNW,293,1.0,-999.0,90,0.00,,,0.00,Wunderground v.1.15,2013-06-14 04:52:00,
2013-06-14 00:57:00,67.4,64.0,29.75,North,0,1.0,-999.0,89,0.00,,,0.00,Wunderground v.1.15,2013-06-14 04:57:00,
2013-06-14 01:02:00,67.5,63.5,29.76,North,0,2.0,-999.0,87,0.00,,,0.00,Wunderground v.1.15,2013-06-14 05:02:00,
2013-06-14 01:07:00,67.4,63.4,29.77,West,270,1.0,-999.0,87,0.00,,,0.00,Wunderground v.1.15,2013-06-14 05:07:00,
2013-06-14 01:12:00,67.5,62.8,29.77,WNW,293,2.0,-999.0,85,0.00,,,0.00,Wunderground v.1.15,2013-06-14 05:12:00,
2013-06-14 01:17:00,67.6,62.6,29.77,ESE,113,2.0,-999.0,84,0.00,,,0.00,Wunderground v.1.15,2013-06-14 05:17:00,
2013-06-14 01:22:00,67.6,62.3,29.77,North,0,1.0,-999.0,83,0.00,,,0.00,Wunderground v.1.15,2013-06-14 05:22:00,
2013-06-14 01:27:00,67.5,62.2,29.78,West,270,1.0,-999.0,83,0.00,,,0.00,Wunderground v.1.15,2013-06-14 05:27:00,
2013-06-14 01:32:00,67.3,61.6,29.78,SE,135,1.0,-999.0,82,0.00,,,0.00,Wunderground v.1.15,2013-06-14 05:32:00,
2013-06-14 01:37:00,67.3,61.6,29.78,WNW,293,1.0,-999.0,82,0.00,,,0.00,Wunderground v.1.15,2013-06-14 05:37:00,
2013-06-14 01:42:00,67.1,61.8,29.78,West,270,1.0,-999.0,83,0.00,,,0.00,Wunderground v.1.15,2013-06-14 05:42:00,
2013-06-14 01:47:00,66.7,60.7,29.78,WNW,293,0.0,-999.0,81,0.00,,,0.00,Wunderground v.1.15,2013-06-14 05:47:00,
2013-06-14 01:52:00,66.4,60.7,29.78,N/A,-737280,0.0,-999.0,82,0.00,,,0.00,Wunderground v.1.15,2013-06-14 05:52:00,
2013-06-14 01:57:00,66.3,60.3,29.78,East,90,1.0,-999.0,81,0.00,,,0.00,Wunderground v.1.15,2013-06-14 05:57:00,
2013-06-14 02:02:00,66.1,60.1,29.79,WSW,248,1.0,-999.0,81,0.00,,,0.00,Wunderground v.1.15,2013-06-14 06:02:00,
2013-06-14 02:07:00,66.0,60.3,29.79,West,270,0.0,-999.0,82,0.00,,,0.00,Wunderground v.1.15,2013-06-14 06:07:00,
2013-06-14 02:12:00,65.9,60.6,29.79,East,90,0.0,-999.0,83,0.00,,,0.00,Wunderground v.1.15,2013-06-14 06:12:00,
2013-06-14 02:17:00,65.7,61.1,29.79,North,0,0.0,-999.0,85,0.00,,,0.00,Wunderground v.1.15,2013-06-14 06:17:00,
2013-06-14 02:22:00,65.4,60.1,29.79,ENE,68,1.0,-999.0,83,0.00,,,0.00,Wunderground v.1.15,2013-06-14 06:22:00,
2013-06-14 02:27:00,65.1,59.5,29.79,ENE,68,0.0,-999.0,82,0.00,,,0.00,Wunderground v.1.15,2013-06-14 06:27:00,
2013-06-14 02:32:00,64.9,59.6,29.79,NE,45,0.0,-999.0,83,0.00,,,0.00,Wunderground v.1.15,2013-06-14 06:32:00,
2013-06-14 02:37:00,64.6,59.3,29.79,ENE,68,0.0,-999.0,83,0.00,,,0.00,Wunderground v.1.15,2013-06-14 06:37:00,
2013-06-14 02:42:00,64.3,58.3,29.79,North,0,0.0,-999.0,81,0.00,,,0.00,Wunderground v.1.15,2013-06-14 06:42:00,
2013-06-14 02:47:00,64.4,58.4,29.79,NNE,23,0.0,-999.0,81,0.00,,,0.00,Wunderground v.1.15,2013-06-14 06:47:00,
2013-06-14 02:52:00,64.3,58.3,29.80,ENE,68,0.0,-999.0,81,0.00,,,0.00,Wunderground v.1.15,2013-06-14 06:52:00,
2013-06-14 02:57:00,64.3,59.4,29.79,ENE,68,0.0,-999.0,84,0.00,,,0.00,Wunderground v.1.15,2013-06-14 06:57:00,
2013-06-14 03:02:00,64.0,59.7,29.79,N/A,-737280,0.0,-999.0,86,0.00,,,0.00,Wunderground v.1.15,2013-06-14 07:02:00,
2013-06-14 03:07:00,63.5,58.6,29.79,N/A,-737280,0.0,-999.0,84,0.00,,,0.00,Wunderground v.1.15,2013-06-14 07:07:00,
2013-06-14 03:12:00,62.9,58.0,29.79,N/A,-737280,0.0,-999.0,84,0.00,,,0.00,Wunderground v.1.15,2013-06-14 07:12:00,
2013-06-14 03:17:00,62.4,57.8,29.79,N/A,-737280,0.0,-999.0,85,0.00,,,0.00,Wunderground v.1.15,2013-06-14 07:17:00,
2013-06-14 03:22:00,62.0,57.4,29.79,WNW,293,0.0,-999.0,85,0.00,,,0.00,Wunderground v.1.15,2013-06-14 07:22:00,
2013-06-14 03:27:00,61.7,57.5,29.79,N/A,-737280,0.0,-999.0,86,0.00,,,0.00,Wunderground v.1.15,2013-06-14 07:27:00,
2013-06-14 03:32:00,61.4,57.2,29.79,N/A,-737280,0.0,-999.0,86,0.00,,,0.00,Wunderground v.1.15,2013-06-14 07:32:00,
2013-06-14 03:37:00,61.1,57.2,29.79,N/A,-737280,0.0,-999.0,87,0.00,,,0.00,Wunderground v.1.15,2013-06-14 07:37:00,
2013-06-14 03:42:00,61.1,57.2,29.79,N/A,-737280,0.0,-999.0,87,0.00,,,0.00,Wunderground v.1.15,2013-06-14 07:42:00,
2013-06-14 03:47:00,60.8,56.9,29.78,N/A,-737280,0.0,-999.0,87,0.00,,,0.00,Wunderground v.1.15,2013-06-14 07:47:00,
2013-06-14 03:52:00,60.7,57.1,29.78,N/A,-737280,0.0,-999.0,88,0.00,,,0.00,Wunderground v.1.15,2013-06-14 07:52:00,
2013-06-14 03:57:00,60.5,57.2,29.78,N/A,-737280,0.0,-999.0,89,0.00,,,0.00,Wunderground v.1.15,2013-06-14 07:57:00,
2013-06-14 04:02:00,60.6,57.3,29.78,N/A,-737280,0.0,-999.0,89,0.00,,,0.00,Wunderground v.1.15,2013-06-14 08:02:00,
2013-06-14 04:07:00,61.0,57.7,29.78,N/A,-737280,0.0,-999.0,89,0.00,,,0.00,Wunderground v.1.15,2013-06-14 08:07:00,
2013-06-14 04:12:00,60.8,57.8,29.78,N/A,-737280,0.0,-999.0,90,0.00,,,0.00,Wunderground v.1.15,2013-06-14 08:12:00,
2013-06-14 04:17:00,60.6,58.0,29.78,SW,225,0.0,-999.0,91,0.00,,,0.00,Wunderground v.1.15,2013-06-14 08:17:00,
2013-06-14 04:22:00,60.6,57.7,29.78,SW,225,1.0,-999.0,90,0.00,,,0.00,Wunderground v.1.15,2013-06-14 08:22:00,
2013-06-14 04:27:00,61.0,57.4,29.78,SW,225,2.0,-999.0,88,0.00,,,0.00,Wunderground v.1.15,2013-06-14 08:27:00,
2013-06-14 04:32:00,61.5,57.3,29.78,SW,225,2.0,-999.0,86,0.00,,,0.00,Wunderground v.1.15,2013-06-14 08:32:00,
2013-06-14 04:37:00,61.9,57.0,29.79,SW,225,2.0,-999.0,84,0.00,,,0.00,Wunderground v.1.15,2013-06-14 08:37:00,
2013-06-14 04:42:00,62.0,57.1,29.79,SW,225,2.0,-999.0,84,0.00,,,0.00,Wunderground v.1.15,2013-06-14 08:42:00,
2013-06-14 04:47:00,61.8,57.2,29.79,SW,225,1.0,-999.0,85,0.00,,,0.00,Wunderground v.1.15,2013-06-14 08:47:00,
2013-06-14 04:52:00,61.5,56.9,29.79,SW,225,1.0,-999.0,85,0.00,,,0.00,Wunderground v.1.15,2013-06-14 08:52:00,
2013-06-14 04:57:00,61.2,57.0,29.79,SW,225,1.0,-999.0,86,0.00,,,0.00,Wunderground v.1.15,2013-06-14 08:57:00,
2013-06-14 05:02:00,61.0,57.1,29.79,SW,225,1.0,-999.0,87,0.00,,,0.00,Wunderground v.1.15,2013-06-14 09:02:00,
2013-06-14 05:07:00,60.8,56.9,29.79,SW,225,1.0,-999.0,87,0.00,,,0.00,Wunderground v.1.15,2013-06-14 09:07:00,
2013-06-14 05:12:00,60.7,56.8,29.79,SW,225,1.0,-999.0,87,0.00,,,0.00,Wunderground v.1.15,2013-06-14 09:12:00,
2013-06-14 05:17:00,60.7,56.8,29.79,SW,225,0.0,-999.0,87,0.00,,,0.00,Wunderground v.1.15,2013-06-14 09:17:00,
2013-06-14 05:22:00,60.5,56.6,29.79,N/A,-737280,0.0,-999.0,87,0.00,,,0.00,Wunderground v.1.15,2013-06-14 09:22:00,
2013-06-14 05:27:00,60.2,56.6,29.79,N/A,-737280,0.0,-999.0,88,0.00,,,0.00,Wunderground v.1.15,2013-06-14 09:27:00,
2013-06-14 05:32:00,60.2,56.6,29.79,N/A,-737280,0.0,-999.0,88,0.00,,,0.00,Wunderground v.1.15,2013-06-14 09:32:00,
2013-06-14 05:37:00,60.1,56.5,29.79,N/A,-737280,0.0,-999.0,88,0.00,,,0.00,Wunderground v.1.15,2013-06-14 09:37:00,
2013-06-14 05:42:00,59.9,56.3,29.79,SW,225,1.0,-999.0,88,0.00,,,0.00,Wunderground v.1.15,2013-06-14 09:42:00,
2013-06-14 05:47:00,59.7,56.8,29.79,SW,225,1.0,-999.0,90,0.00,,,0.00,Wunderground v.1.15,2013-06-14 09:47:00,
2013-06-14 05:52:00,59.5,56.9,29.79,SW,225,1.0,-999.0,91,0.00,,,0.00,Wunderground v.1.15,2013-06-14 09:52:00,
2013-06-14 05:57:00,59.2,56.9,29.80,SW,225,1.0,-999.0,92,0.00,,,0.00,Wunderground v.1.15,2013-06-14 09:57:00,
2013-06-14 06:02:00,59.0,56.7,29.80,SW,225,1.0,-999.0,92,0.00,,,0.00,Wunderground v.1.15,2013-06-14 10:02:00,
2013-06-14 06:07:00,59.0,56.4,29.80,SW,225,1.0,-999.0,91,0.00,,,0.00,Wunderground v.1.15,2013-06-14 10:07:00,
2013-06-14 06:12:00,59.1,56.5,29.81,SW,225,1.0,-999.0,91,0.00,,,0.00,Wunderground v.1.15,2013-06-14 10:12:00,
2013-06-14 06:17:00,59.4,56.5,29.81,WSW,248,1.0,-999.0,90,0.00,,,0.00,Wunderground v.1.15,2013-06-14 10:17:00,
2013-06-14 06:22:00,59.7,56.5,29.81,WSW,248,1.0,-999.0,89,0.00,,,0.00,Wunderground v.1.15,2013-06-14 10:22:00,
2013-06-14 06:27:00,60.0,56.4,29.81,WSW,248,1.0,-999.0,88,0.00,,,0.00,Wunderground v.1.15,2013-06-14 10:27:00,
2013-06-14 06:32:00,60.3,56.7,29.82,SW,225,1.0,-999.0,88,0.00,,,0.00,Wunderground v.1.15,2013-06-14 10:32:00,
2013-06-14 06:33:00,60.6,56.4,29.81,N/A,-737280,0.0,-999.0,86,0.00,,,0.00,Wunderground v.1.15,2013-06-14 10:33:00,
2013-06-14 06:37:00,60.6,56.4,29.81,N/A,-737280,0.0,-999.0,86,0.00,,,0.00,Wunderground v.1.15,2013-06-14 10:37:00,
2013-06-14 06:38:00,60.8,56.3,29.82,N/A,-737280,0.0,-999.0,85,0.00,,,0.00,Wunderground v.1.15,2013-06-14 10:38:00,
2013-06-14 06:42:00,60.8,56.3,29.82,N/A,-737280,0.0,-999.0,85,0.00,,,0.00,Wunderground v.1.15,2013-06-14 10:42:00,
2013-06-14 06:43:00,60.9,56.7,29.82,N/A,-737280,0.0,-999.0,86,0.00,,,0.00,Wunderground v.1.15,2013-06-14 10:43:00,
2013-06-14 06:47:00,60.9,56.7,29.82,N/A,-737280,0.0,-999.0,86,0.00,,,0.00,Wunderground v.1.15,2013-06-14 10:47:00,
2013-06-14 06:48:00,60.8,56.9,29.82,N/A,-737280,0.0,-999.0,87,0.00,,,0.00,Wunderground v.1.15,2013-06-14 10:48:00,
2013-06-14 06:52:00,60.8,56.9,29.82,N/A,-737280,0.0,-999.0,87,0.00,,,0.00,Wunderground v.1.15,2013-06-14 10:52:00,
2013-06-14 06:53:00,60.6,56.7,29.83,N/A,-737280,0.0,-999.0,87,0.00,,,0.00,Wunderground v.1.15,2013-06-14 10:53:00,
2013-06-14 06:57:00,60.6,56.7,29.83,N/A,-737280,0.0,-999.0,87,0.00,,,0.00,Wunderground v.1.15,2013-06-14 10:57:00,
2013-06-14 06:58:00,60.9,56.7,29.83,N/A,-737280,0.0,-999.0,86,0.00,,,0.00,Wunderground v.1.15,2013-06-14 10:58:00,
2013-06-14 07:02:00,60.9,56.7,29.83,N/A,-737280,0.0,-999.0,86,0.00,,,0.00,Wunderground v.1.15,2013-06-14 11:02:00,
2013-06-14 07:03:00,61.2,56.7,29.83,N/A,-737280,0.0,-999.0,85,0.00,,,0.00,Wunderground v.1.15,2013-06-14 11:03:00,
2013-06-14 07:08:00,61.5,56.9,29.83,N/A,-737280,0.0,-999.0,85,0.00,,,0.00,Wunderground v.1.15,2013-06-14 11:08:00,
2013-06-14 07:13:00,61.6,57.0,29.83,N/A,-737280,0.0,-999.0,85,0.00,,,0.00,Wunderground v.1.15,2013-06-14 11:13:00,
2013-06-14 07:18:00,61.7,57.5,29.83,N/A,-737280,0.0,-999.0,86,0.00,,,0.00,Wunderground v.1.15,2013-06-14 11:18:00,
2013-06-14 07:23:00,61.7,57.5,29.83,N/A,-737280,0.0,-999.0,86,0.00,,,0.00,Wunderground v.1.15,2013-06-14 11:23:00,
2013-06-14 07:33:00,61.8,57.6,29.83,N/A,-737280,0.0,-999.0,86,0.00,,,0.00,Wunderground v.1.15,2013-06-14 11:33:00,
2013-06-14 07:34:00,61.9,57.7,29.83,SW,226,0.0,0.0,86,0.00,,,0.00,Wunderground v.1.15,2013-06-14 11:34:00,
2013-06-14 07:39:00,62.2,58.3,29.84,SW,229,0.0,0.0,87,0.00,,,0.00,Wunderground v.1.15,2013-06-14 11:39:00,
2013-06-14 07:40:00,62.2,58.0,29.84,WSW,239,0.0,0.0,86,0.00,,,0.00,Wunderground v.1.15,2013-06-14 11:40:00,
2013-06-14 07:44:00,62.4,58.2,29.84,WSW,239,0.0,0.0,86,0.00,,,0.00,Wunderground v.1.15,2013-06-14 11:44:00,
2013-06-14 07:45:00,62.4,58.2,29.83,WSW,255,1.0,2.0,86,0.00,,,0.00,Wunderground v.1.15,2013-06-14 11:45:00,
2013-06-14 07:49:00,62.7,58.5,29.84,WSW,238,2.0,3.0,86,0.00,,,0.00,Wunderground v.1.15,2013-06-14 11:49:00,
2013-06-14 07:50:00,62.8,58.5,29.84,SW,229,2.0,3.0,86,0.00,,,0.00,Wunderground v.1.15,2013-06-14 11:50:00,
2013-06-14 07:54:00,63.2,58.6,29.84,SW,232,1.0,3.0,85,0.00,,,0.00,Wunderground v.1.15,2013-06-14 11:54:00,
2013-06-14 07:55:00,63.3,58.7,29.84,SW,233,0.0,3.0,85,0.00,,,0.00,Wunderground v.1.15,2013-06-14 11:55:00,
2013-06-14 07:59:00,63.7,59.1,29.84,WSW,241,0.0,3.0,85,0.00,,,0.00,Wunderground v.1.15,2013-06-14 11:59:00,
2013-06-14 08:00:00,63.7,59.1,29.84,WSW,243,1.0,1.0,85,0.00,,,0.00,Wunderground v.1.15,2013-06-14 12:00:00,
2013-06-14 08:04:00,64.0,59.4,29.84,WSW,245,0.0,3.0,85,0.00,,,0.00,Wunderground v.1.15,2013-06-14 12:04:00,
2013-06-14 08:05:00,64.1,59.5,29.84,WSW,245,1.0,3.0,85,0.00,,,0.00,Wunderground v.1.15,2013-06-14 12:05:00,
2013-06-14 08:09:00,64.4,59.5,29.85,SW,231,0.0,3.0,84,0.00,,,0.00,Wunderground v.1.15,2013-06-14 12:09:00,
2013-06-14 08:10:00,64.4,59.8,29.85,SW,231,0.0,1.0,85,0.00,,,0.00,Wunderground v.1.15,2013-06-14 12:10:00,
2013-06-14 08:14:00,64.6,59.7,29.85,WSW,252,0.0,3.0,84,0.00,,,0.00,Wunderground v.1.15,2013-06-14 12:14:00,
2013-06-14 08:15:00,64.6,59.7,29.85,WSW,252,1.0,3.0,84,0.00,,,0.00,Wunderground v.1.15,2013-06-14 12:15:00,
2013-06-14 08:16:00,64.8,59.9,29.85,SW,218,1.0,3.0,84,0.00,,,0.00,Wunderground v.1.15,2013-06-14 12:16:00,
2013-06-14 08:20:00,65.0,60.0,29.85,SW,220,0.0,1.0,84,0.00,,,0.00,Wunderground v.1.15,2013-06-14 12:20:00,
2013-06-14 08:21:00,65.0,60.0,29.85,SW,221,0.0,1.0,84,0.00,,,0.00,Wunderground v.1.15,2013-06-14 12:21:00,
2013-06-14 08:25:00,65.3,60.3,29.85,SW,219,2.0,2.0,84,0.00,,,0.00,Wunderground v.1.15,2013-06-14 12:25:00,
2013-06-14 08:26:00,65.4,60.4,29.85,WSW,238,0.0,2.0,84,0.00,,,0.00,Wunderground v.1.15,2013-06-14 12:26:00,
2013-06-14 08:30:00,65.7,60.7,29.85,West,271,0.0,1.0,84,0.00,,,0.00,Wunderground v.1.15,2013-06-14 12:30:00,
2013-06-14 08:31:00,65.8,61.2,29.85,West,271,0.0,1.0,85,0.00,,,0.00,Wunderground v.1.15,2013-06-14 12:31:00,
2013-06-14 08:32:00,65.9,61.3,29.85,West,271,0.0,1.0,85,0.00,,,0.00,Wunderground v.1.15,2013-06-14 12:32:00,
2013-06-14 08:35:00,66.2,61.2,29.85,North,352,0.0,1.0,84,0.00,,,0.00,Wunderground v.1.15,2013-06-14 12:35:00,
2013-06-14 08:36:00,66.3,61.0,29.85,WNW,300,2.0,2.0,83,0.00,,,0.00,Wunderground v.1.15,2013-06-14 12:36:00,
2013-06-14 08:37:00,66.5,60.8,29.85,NW,309,1.0,3.0,82,0.00,,,0.00,Wunderground v.1.15,2013-06-14 12:37:00,
2013-06-14 08:40:00,67.1,61.1,29.85,WNW,293,1.0,1.0,81,0.00,,,0.00,Wunderground v.1.15,2013-06-14 12:40:00,
2013-06-14 08:41:00,67.3,60.9,29.85,NE,51,6.0,9.0,80,0.00,,,0.00,Wunderground v.1.15,2013-06-14 12:41:00,
2013-06-14 08:42:00,67.6,61.2,29.85,SSW,198,2.0,11.0,80,0.00,,,0.00,Wunderground v.1.15,2013-06-14 12:42:00,
2013-06-14 08:46:00,68.2,60.7,29.86,NE,35,4.0,11.0,77,0.00,,,0.00,Wunderground v.1.15,2013-06-14 12:46:00,
2013-06-14 08:47:00,68.3,60.1,29.86,West,259,1.0,11.0,75,0.00,,,0.00,Wunderground v.1.15,2013-06-14 12:47:00,
2013-06-14 08:51:00,69.1,59.7,29.86,West,261,2.0,5.0,72,0.00,,,0.00,Wunderground v.1.15,2013-06-14 12:51:00,
2013-06-14 08:52:00,69.1,59.3,29.86,East,86,2.0,7.0,71,0.00,,,0.00,Wunderground v.1.15,2013-06-14 12:52:00,
2013-06-14 08:56:00,69.7,60.3,29.86,NE,48,0.0,7.0,72,0.00,,,0.00,Wunderground v.1.15,2013-06-14 12:56:00,
2013-06-14 08:57:00,69.8,60.4,29.86,NE,49,0.0,7.0,72,0.00,,,0.00,Wunderground v.1.15,2013-06-14 12:57:00,
2013-06-14 09:01:00,70.1,59.5,29.87,NW,319,2.0,4.0,69,0.00,,,0.00,Wunderground v.1.15,2013-06-14 13:01:00,
2013-06-14 09:02:00,70.1,59.5,29.87,NE,39,2.0,4.0,69,0.00,,,0.00,Wunderground v.1.15,2013-06-14 13:02:00,
2013-06-14 09:07:00,70.5,60.6,29.87,SE,139,2.0,7.0,71,0.00,,,0.00,Wunderground v.1.15,2013-06-14 13:07:00,
2013-06-14 09:08:00,70.6,60.7,29.86,SSE,150,0.0,7.0,71,0.00,,,0.00,Wunderground v.1.15,2013-06-14 13:08:00,
2013-06-14 09:12:00,71.2,61.7,29.87,WSW,250,2.0,2.0,72,0.00,,,0.00,Wunderground v.1.15,2013-06-14 13:12:00,
2013-06-14 09:14:00,71.4,61.1,29.87,WNW,292,4.0,4.0,70,0.00,,,0.00,Wunderground v.1.15,2013-06-14 13:14:00,
2013-06-14 09:17:00,71.6,60.1,29.87,WNW,297,1.0,5.0,67,0.00,,,0.00,Wunderground v.1.15,2013-06-14 13:17:00,
2013-06-14 09:18:00,71.7,59.7,29.87,WNW,284,2.0,5.0,66,0.00,,,0.00,Wunderground v.1.15,2013-06-14 13:18:00,
2013-06-14 09:20:00,71.7,59.7,29.87,West,273,3.0,4.0,66,0.00,,,0.00,Wunderground v.1.15,2013-06-14 13:20:00,
2013-06-14 09:22:00,71.7,60.2,29.87,West,278,2.0,5.0,67,0.00,,,0.00,Wunderground v.1.15,2013-06-14 13:22:00,
2013-06-14 09:23:00,71.7,60.2,29.87,West,280,2.0,5.0,67,0.00,,,0.00,Wunderground v.1.15,2013-06-14 13:23:00,
2013-06-14 09:25:00,71.8,59.0,29.87,NNE,15,5.0,8.0,64,0.00,,,0.00,Wunderground v.1.15,2013-06-14 13:25:00,
2013-06-14 09:27:00,71.7,59.7,29.87,WNW,285,1.0,8.0,66,0.00,,,0.00,Wunderground v.1.15,2013-06-14 13:27:00,
2013-06-14 09:28:00,71.7,59.3,29.87,ENE,70,1.0,8.0,65,0.00,,,0.00,Wunderground v.1.15,2013-06-14 13:28:00,
2013-06-14 09:30:00,71.9,60.8,29.87,ESE,123,2.0,3.0,68,0.00,,,0.00,Wunderground v.1.15,2013-06-14 13:30:00,
2013-06-14 09:32:00,72.1,60.1,29.87,WNW,299,1.0,4.0,66,0.00,,,0.00,Wunderground v.1.15,2013-06-14 13:32:00,
2013-06-14 09:33:00,72.2,61.5,29.87,WNW,300,0.0,4.0,69,0.00,,,0.00,Wunderground v.1.15,2013-06-14 13:33:00,
2013-06-14 09:34:00,72.2,61.5,29.87,WNW,300,0.0,4.0,69,0.00,,,0.00,Wunderground v.1.15,2013-06-14 13:34:00,
2013-06-14 09:35:00,72.4,61.7,29.87,WNW,300,0.0,4.0,69,0.00,,,0.00,Wunderground v.1.15,2013-06-14 13:35:00,
2013-06-14 09:38:00,72.8,61.2,29.87,NE,44,2.0,4.0,67,0.00,,,0.00,Wunderground v.1.15,2013-06-14 13:38:00,
2013-06-14 09:39:00,72.9,60.4,29.87,SE,125,1.0,4.0,65,0.00,,,0.00,Wunderground v.1.15,2013-06-14 13:39:00,
2013-06-14 09:40:00,72.9,60.4,29.87,East,80,3.0,3.0,65,0.00,,,0.00,Wunderground v.1.15,2013-06-14 13:40:00,
2013-06-14 09:43:00,72.8,60.8,29.87,NNE,29,2.0,7.0,66,0.00,,,0.00,Wunderground v.1.15,2013-06-14 13:43:00,
2013-06-14 09:44:00,72.8,59.9,29.87,SW,224,0.0,7.0,64,0.00,,,0.00,Wunderground v.1.15,2013-06-14 13:44:00,
2013-06-14 09:45:00,72.8,60.8,29.87,SW,224,0.0,7.0,66,0.00,,,0.00,Wunderground v.1.15,2013-06-14 13:45:00,
2013-06-14 09:49:00,73.0,60.1,29.87,ENE,65,1.0,7.0,64,0.00,,,0.00,Wunderground v.1.15,2013-06-14 13:49:00,
2013-06-14 09:50:00,73.0,60.1,29.87,NNW,337,1.0,2.0,64,0.00,,,0.00,Wunderground v.1.15,2013-06-14 13:50:00,
2013-06-14 09:54:00,73.2,61.6,29.87,North,8,1.0,3.0,67,0.00,,,0.00,Wunderground v.1.15,2013-06-14 13:54:00,
2013-06-14 09:55:00,73.2,60.7,29.87,ENE,70,2.0,3.0,65,0.00,,,0.00,Wunderground v.1.15,2013-06-14 13:55:00,
2013-06-14 09:59:00,73.4,61.3,29.87,East,90,2.0,4.0,66,0.00,,,0.00,Wunderground v.1.15,2013-06-14 13:59:00,
2013-06-14 10:00:00,73.6,62.4,29.87,North,5,1.0,2.0,68,0.00,,,0.00,Wunderground v.1.15,2013-06-14 14:00:00,
2013-06-14 10:01:00,73.7,61.6,29.87,NNE,30,3.0,4.0,66,0.00,,,0.00,Wunderground v.1.15,2013-06-14 14:01:00,
2013-06-14 10:05:00,73.9,61.0,29.87,NE,41,1.0,6.0,64,0.00,,,0.00,Wunderground v.1.15,2013-06-14 14:05:00,
2013-06-14 10:06:00,73.9,61.4,29.88,ESE,104,2.0,6.0,65,0.00,,,0.00,Wunderground v.1.15,2013-06-14 14:06:00,
2013-06-14 10:10:00,73.9,59.6,29.88,ENE,70,2.0,2.0,61,0.00,,,0.00,Wunderground v.1.15,2013-06-14 14:10:00,
2013-06-14 10:11:00,74.0,59.2,29.88,SW,220,1.0,4.0,60,0.00,,,0.00,Wunderground v.1.15,2013-06-14 14:11:00,
2013-06-14 10:15:00,74.0,58.8,29.88,NE,56,2.0,9.0,59,0.00,,,0.00,Wunderground v.1.15,2013-06-14 14:15:00,
2013-06-14 10:16:00,74.0,58.3,29.88,SSW,208,2.0,9.0,58,0.00,,,0.00,Wunderground v.1.15,2013-06-14 14:16:00,
2013-06-14 10:17:00,73.9,58.7,29.87,East,85,1.0,9.0,59,0.00,,,0.00,Wunderground v.1.15,2013-06-14 14:17:00,
2013-06-14 10:20:00,74.0,58.8,29.88,SW,230,3.0,6.0,59,0.00,,,0.00,Wunderground v.1.15,2013-06-14 14:20:00,
2013-06-14 10:21:00,74.0,58.8,29.88,East,90,3.0,6.0,59,0.00,,,0.00,Wunderground v.1.15,2013-06-14 14:21:00,
2013-06-14 10:22:00,74.1,59.3,29.88,ENE,77,2.0,6.0,60,0.00,,,0.00,Wunderground v.1.15,2013-06-14 14:22:00,
2013-06-14 10:25:00,73.9,58.7,29.88,NE,44,11.0,12.0,59,0.00,,,0.00,Wunderground v.1.15,2013-06-14 14:25:00,
2013-06-14 10:26:00,73.8,58.6,29.88,ENE,57,4.0,13.0,59,0.00,,,0.00,Wunderground v.1.15,2013-06-14 14:26:00,
2013-06-14 10:27:00,73.8,58.1,29.88,ENE,58,6.0,13.0,58,0.00,,,0.00,Wunderground v.1.15,2013-06-14 14:27:00,
2013-06-14 10:30:00,73.8,60.0,29.87,NW,309,0.0,4.0,62,0.00,,,0.00,Wunderground v.1.15,2013-06-14 14:30:00,
2013-06-14 10:31:00,73.9,60.1,29.87,SW,214,3.0,4.0,62,0.00,,,0.00,Wunderground v.1.15,2013-06-14 14:31:00,
2013-06-14 10:32:00,74.0,60.6,29.87,West,278,2.0,4.0,63,0.00,,,0.00,Wunderground v.1.15,2013-06-14 14:32:00,
2013-06-14 10:35:00,74.3,59.5,29.87,ESE,113,2.0,8.0,60,0.00,,,0.00,Wunderground v.1.15,2013-06-14 14:35:00,
2013-06-14 10:36:00,74.3,59.5,29.87,East,91,3.0,8.0,60,0.00,,,0.00,Wunderground v.1.15,2013-06-14 14:36:00,
2013-06-14 10:37:00,74.4,59.1,29.87,SW,215,2.0,8.0,59,0.00,,,0.00,Wunderground v.1.15,2013-06-14 14:37:00,
2013-06-14 10:40:00,74.5,58.8,29.88,SE,143,1.0,3.0,58,0.00,,,0.00,Wunderground v.1.15,2013-06-14 14:40:00,
2013-06-14 10:41:00,74.5,58.8,29.88,East,97,2.0,3.0,58,0.00,,,0.00,Wunderground v.1.15,2013-06-14 14:41:00,
2013-06-14 10:42:00,74.5,60.6,29.87,WSW,249,1.0,3.0,62,0.00,,,0.00,Wunderground v.1.15,2013-06-14 14:42:00,
2013-06-14 10:43:00,74.6,60.7,29.88,WSW,239,2.0,3.0,62,0.00,,,0.00,Wunderground v.1.15,2013-06-14 14:43:00,
2013-06-14 10:46:00,74.9,59.6,29.87,North,349,1.0,3.0,59,0.00,,,0.00,Wunderground v.1.15,2013-06-14 14:46:00,
2013-06-14 10:47:00,75.1,60.3,29.87,ENE,72,4.0,5.0,60,0.00,,,0.00,Wunderground v.1.15,2013-06-14 14:47:00,
2013-06-14 10:48:00,75.1,58.8,29.87,East,92,3.0,5.0,57,0.00,,,0.00,Wunderground v.1.15,2013-06-14 14:48:00,
2013-06-14 10:51:00,74.9,58.1,29.87,East,81,3.0,3.0,56,0.00,,,0.00,Wunderground v.1.15,2013-06-14 14:51:00,
2013-06-14 10:52:00,74.9,58.1,29.87,ESE,105,1.0,3.0,56,0.00,,,0.00,Wunderground v.1.15,2013-06-14 14:52:00,
2013-06-14 10:53:00,74.9,58.6,29.88,NE,52,5.0,12.0,57,0.00,,,0.00,Wunderground v.1.15,2013-06-14 14:53:00,
2013-06-14 10:56:00,74.9,59.1,29.88,SE,134,2.0,12.0,58,0.00,,,0.00,Wunderground v.1.15,2013-06-14 14:56:00,
2013-06-14 10:57:00,74.9,59.1,29.88,SE,125,2.0,12.0,58,0.00,,,0.00,Wunderground v.1.15,2013-06-14 14:57:00,
2013-06-14 10:58:00,75.0,58.2,29.88,SE,126,2.0,12.0,56,0.00,,,0.00,Wunderground v.1.15,2013-06-14 14:58:00,
2013-06-14 11:01:00,75.4,59.1,29.87,ENE,63,2.0,3.0,57,0.00,,,0.00,Wunderground v.1.15,2013-06-14 15:01:00,
2013-06-14 11:02:00,75.4,59.1,29.87,ENE,63,1.0,3.0,57,0.00,,,0.00,Wunderground v.1.15,2013-06-14 15:02:00,
2013-06-14 11:03:00,75.6,59.3,29.88,SSE,149,1.0,3.0,57,0.00,,,0.00,Wunderground v.1.15,2013-06-14 15:03:00,
2013-06-14 11:07:00,76.1,60.2,29.88,SSE,165,1.0,3.0,58,0.00,,,0.00,Wunderground v.1.15,2013-06-14 15:07:00,
2013-06-14 11:09:00,76.3,57.9,29.88,ENE,75,3.0,8.0,53,0.00,,,0.00,Wunderground v.1.15,2013-06-14 15:09:00,
2013-06-14 11:12:00,76.3,58.9,29.88,WNW,284,2.0,4.0,55,0.00,,,0.00,Wunderground v.1.15,2013-06-14 15:12:00,
2013-06-14 11:13:00,76.4,59.0,29.88,NE,49,4.0,4.0,55,0.00,,,0.00,Wunderground v.1.15,2013-06-14 15:13:00,
2013-06-14 11:14:00,76.4,58.0,29.88,NNW,336,3.0,5.0,53,0.00,,,0.00,Wunderground v.1.15,2013-06-14 15:14:00,
2013-06-14 11:17:00,76.4,58.5,29.88,East,85,3.0,5.0,54,0.00,,,0.00,Wunderground v.1.15,2013-06-14 15:17:00,
2013-06-14 11:18:00,76.4,59.0,29.88,WSW,242,2.0,5.0,55,0.00,,,0.00,Wunderground v.1.15,2013-06-14 15:18:00,
2013-06-14 11:19:00,76.5,59.1,29.88,NE,44,4.0,5.0,55,0.00,,,0.00,Wunderground v.1.15,2013-06-14 15:19:00,
2013-06-14 11:22:00,76.7,57.2,29.88,West,264,1.0,8.0,51,0.00,,,0.00,Wunderground v.1.15,2013-06-14 15:22:00,
2013-06-14 11:23:00,76.7,57.7,29.88,North,11,4.0,8.0,52,0.00,,,0.00,Wunderground v.1.15,2013-06-14 15:23:00,
2013-06-14 11:24:00,76.7,58.3,29.88,ESE,117,2.0,8.0,53,0.00,,,0.00,Wunderground v.1.15,2013-06-14 15:24:00,
2013-06-14 11:27:00,76.8,57.8,29.88,NE,38,3.0,9.0,52,0.00,,,0.00,Wunderground v.1.15,2013-06-14 15:27:00,
2013-06-14 11:28:00,76.8,57.8,29.88,WNW,288,8.0,9.0,52,0.00,,,0.00,Wunderground v.1.15,2013-06-14 15:28:00,
2013-06-14 11:30:00,76.8,57.3,29.89,NNW,345,3.0,3.0,51,0.00,,,0.00,Wunderground v.1.15,2013-06-14 15:30:00,
2013-06-14 11:32:00,76.8,56.8,29.89,ENE,63,6.0,11.0,50,0.00,,,0.00,Wunderground v.1.15,2013-06-14 15:32:00,
2013-06-14 11:33:00,76.8,56.8,29.89,ENE,59,4.0,11.0,50,0.00,,,0.00,Wunderground v.1.15,2013-06-14 15:33:00,
2013-06-14 11:35:00,76.8,57.8,29.89,NNW,330,2.0,11.0,52,0.00,,,0.00,Wunderground v.1.15,2013-06-14 15:35:00,
2013-06-14 11:38:00,77.0,57.5,29.89,East,79,6.0,11.0,51,0.00,,,0.00,Wunderground v.1.15,2013-06-14 15:38:00,
2013-06-14 11:40:00,77.3,57.8,29.89,WNW,302,2.0,3.0,51,0.00,,,0.00,Wunderground v.1.15,2013-06-14 15:40:00,
2013-06-14 11:43:00,77.5,56.8,29.89,ESE,107,1.0,7.0,49,0.00,,,0.00,Wunderground v.1.15,2013-06-14 15:43:00,
2013-06-14 11:45:00,77.6,58.0,29.89,SE,143,1.0,7.0,51,0.00,,,0.00,Wunderground v.1.15,2013-06-14 15:45:00,
2013-06-14 11:48:00,77.6,59.1,29.89,SSE,150,2.0,7.0,53,0.00,,,0.00,Wunderground v.1.15,2013-06-14 15:48:00,
2013-06-14 11:50:00,77.7,57.0,29.89,ESE,117,2.0,3.0,49,0.00,,,0.00,Wunderground v.1.15,2013-06-14 15:50:00,
2013-06-14 11:53:00,77.9,57.8,29.89,NE,54,3.0,5.0,50,0.00,,,0.00,Wunderground v.1.15,2013-06-14 15:53:00,
2013-06-14 11:55:00,77.9,57.8,29.89,WNW,291,6.0,6.0,50,0.00,,,0.00,Wunderground v.1.15,2013-06-14 15:55:00,
2013-06-14 11:58:00,77.9,57.8,29.89,ENE,63,3.0,6.0,50,0.00,,,0.00,Wunderground v.1.15,2013-06-14 15:58:00,
2013-06-14 11:59:00,77.9,57.8,29.89,NNE,20,2.0,6.0,50,0.00,,,0.00,Wunderground v.1.15,2013-06-14 15:59:00,
2013-06-14 12:00:00,78.0,58.4,29.89,WSW,248,2.0,3.0,51,0.00,,,0.00,Wunderground v.1.15,2013-06-14 16:00:00,
2013-06-14 12:01:00,78.1,57.4,29.89,SSE,149,0.0,3.0,49,0.00,,,0.00,Wunderground v.1.15,2013-06-14 16:01:00,
2013-06-14 12:04:00,78.3,59.8,29.89,NW,316,3.0,5.0,53,0.00,,,0.00,Wunderground v.1.15,2013-06-14 16:04:00,
2013-06-14 12:05:00,78.5,59.9,29.89,WNW,288,1.0,5.0,53,0.00,,,0.00,Wunderground v.1.15,2013-06-14 16:05:00,
2013-06-14 12:06:00,78.5,58.9,29.89,East,89,2.0,5.0,51,0.00,,,0.00,Wunderground v.1.15,2013-06-14 16:06:00,
2013-06-14 12:09:00,78.6,58.4,29.89,ENE,75,1.0,7.0,50,0.00,,,0.00,Wunderground v.1.15,2013-06-14 16:09:00,
2013-06-14 12:10:00,78.6,56.7,29.89,NE,51,6.0,11.0,47,0.00,,,0.00,Wunderground v.1.15,2013-06-14 16:10:00,
2013-06-14 12:11:00,78.5,56.0,29.89,East,97,1.0,11.0,46,0.00,,,0.00,Wunderground v.1.15,2013-06-14 16:11:00,
2013-06-14 12:14:00,78.4,57.1,29.89,SW,221,4.0,11.0,48,0.00,,,0.00,Wunderground v.1.15,2013-06-14 16:14:00,
2013-06-14 12:16:00,78.4,56.5,29.89,North,349,4.0,11.0,47,0.00,,,0.00,Wunderground v.1.15,2013-06-14 16:16:00,
2013-06-14 12:19:00,78.2,56.3,29.89,ENE,58,2.0,11.0,47,0.00,,,0.00,Wunderground v.1.15,2013-06-14 16:19:00,
2013-06-14 12:20:00,78.2,56.3,29.89,ENE,58,2.0,3.0,47,0.00,,,0.00,Wunderground v.1.15,2013-06-14 16:20:00,
2013-06-14 12:21:00,78.1,58.5,29.89,NNE,12,2.0,3.0,51,0.00,,,0.00,Wunderground v.1.15,2013-06-14 16:21:00,
2013-06-14 12:24:00,78.4,57.7,29.89,NNE,27,2.0,4.0,49,0.00,,,0.00,Wunderground v.1.15,2013-06-14 16:24:00,
2013-06-14 12:25:00,78.4,57.7,29.89,WNW,302,3.0,4.0,49,0.00,,,0.00,Wunderground v.1.15,2013-06-14 16:25:00,
2013-06-14 12:26:00,78.5,57.7,29.89,West,271,2.0,4.0,49,0.00,,,0.00,Wunderground v.1.15,2013-06-14 16:26:00,
2013-06-14 12:29:00,78.8,59.1,29.89,WNW,284,7.0,7.0,51,0.00,,,0.00,Wunderground v.1.15,2013-06-14 16:29:00,
2013-06-14 12:30:00,78.8,59.1,29.89,ENE,68,5.0,5.0,51,0.00,,,0.00,Wunderground v.1.15,2013-06-14 16:30:00,
2013-06-14 12:31:00,78.8,57.4,29.89,SW,214,1.0,9.0,48,0.00,,,0.00,Wunderground v.1.15,2013-06-14 16:31:00,
2013-06-14 12:35:00,79.1,58.9,29.89,SE,146,1.0,9.0,50,0.00,,,0.00,Wunderground v.1.15,2013-06-14 16:35:00,
2013-06-14 12:36:00,79.3,59.0,29.88,ENE,76,1.0,9.0,50,0.00,,,0.00,Wunderground v.1.15,2013-06-14 16:36:00,
2013-06-14 12:40:00,79.4,57.4,29.88,West,259,1.0,3.0,47,0.00,,,0.00,Wunderground v.1.15,2013-06-14 16:40:00,
2013-06-14 12:41:00,79.3,57.3,29.88,WSW,258,0.0,3.0,47,0.00,,,0.00,Wunderground v.1.15,2013-06-14 16:41:00,
2013-06-14 12:42:00,79.4,58.6,29.88,ESE,107,1.0,3.0,49,0.00,,,0.00,Wunderground v.1.15,2013-06-14 16:42:00,
2013-06-14 12:45:00,79.5,58.1,29.89,NNW,330,5.0,8.0,48,0.00,,,0.00,Wunderground v.1.15,2013-06-14 16:45:00,
2013-06-14 12:46:00,79.5,58.1,29.89,NW,316,1.0,8.0,48,0.00,,,0.00,Wunderground v.1.15,2013-06-14 16:46:00,
2013-06-14 12:47:00,79.6,58.8,29.88,East,86,1.0,8.0,49,0.00,,,0.00,Wunderground v.1.15,2013-06-14 16:47:00,
2013-06-14 12:50:00,79.7,59.4,29.89,West,267,0.0,5.0,50,0.00,,,0.00,Wunderground v.1.15,2013-06-14 16:50:00,
2013-06-14 12:51:00,79.7,58.3,29.89,West,267,0.0,5.0,48,0.00,,,0.00,Wunderground v.1.15,2013-06-14 16:51:00,
2013-06-14 12:52:00,79.8,58.4,29.89,NNE,30,2.0,5.0,48,0.00,,,0.00,Wunderground v.1.15,2013-06-14 16:52:00,
2013-06-14 12:56:00,79.8,55.9,29.89,SE,140,1.0,6.0,44,0.00,,,0.00,Wunderground v.1.15,2013-06-14 16:56:00,
2013-06-14 12:57:00,79.7,58.3,29.89,ESE,110,1.0,6.0,48,0.00,,,0.00,Wunderground v.1.15,2013-06-14 16:57:00,
2013-06-14 13:01:00,79.5,57.5,29.89,East,79,3.0,5.0,47,0.00,,,0.00,Wunderground v.1.15,2013-06-14 17:01:00,
2013-06-14 13:02:00,79.4,57.4,29.89,East,90,2.0,5.0,47,0.00,,,0.00,Wunderground v.1.15,2013-06-14 17:02:00,
2013-06-14 13:06:00,79.3,59.6,29.89,ENE,75,1.0,8.0,51,0.00,,,0.00,Wunderground v.1.15,2013-06-14 17:06:00,
2013-06-14 13:07:00,79.4,58.6,29.89,ESE,120,4.0,8.0,49,0.00,,,0.00,Wunderground v.1.15,2013-06-14 17:07:00,
2013-06-14 13:11:00,79.3,57.3,29.89,East,93,1.0,6.0,47,0.00,,,0.00,Wunderground v.1.15,2013-06-14 17:11:00,
2013-06-14 13:12:00,79.3,57.9,29.89,NNE,20,1.0,6.0,48,0.00,,,0.00,Wunderground v.1.15,2013-06-14 17:12:00,
2013-06-14 13:16:00,79.5,58.1,29.90,WSW,240,1.0,6.0,48,0.00,,,0.00,Wunderground v.1.15,2013-06-14 17:16:00,
2013-06-14 13:17:00,79.6,59.3,29.90,NNW,343,3.0,7.0,50,0.00,,,0.00,Wunderground v.1.15,2013-06-14 17:17:00,
2013-06-14 13:18:00,79.7,58.8,29.90,East,93,1.0,7.0,49,0.00,,,0.00,Wunderground v.1.15,2013-06-14 17:18:00,
2013-06-14 13:21:00,80.0,58.0,29.90,NNW,333,3.0,7.0,47,0.00,,,0.00,Wunderground v.1.15,2013-06-14 17:21:00,
2013-06-14 13:22:00,79.9,58.5,29.90,East,80,5.0,7.0,48,0.00,,,0.00,Wunderground v.1.15,2013-06-14 17:22:00,
2013-06-14 13:23:00,79.7,58.3,29.90,NNW,336,3.0,7.0,48,0.00,,,0.00,Wunderground v.1.15,2013-06-14 17:23:00,
2013-06-14 13:24:00,79.7,58.3,29.90,NE,43,2.0,7.0,48,0.00,,,0.00,Wunderground v.1.15,2013-06-14 17:24:00,
2013-06-14 13:26:00,79.4,57.4,29.90,ENE,61,2.0,7.0,47,0.00,,,0.00,Wunderground v.1.15,2013-06-14 17:26:00,
2013-06-14 13:27:00,79.4,58.0,29.90,East,87,0.0,7.0,48,0.00,,,0.00,Wunderground v.1.15,2013-06-14 17:27:00,
2013-06-14 13:28:00,79.3,59.0,29.90,ENE,78,1.0,7.0,50,0.00,,,0.00,Wunderground v.1.15,2013-06-14 17:28:00,
2013-06-14 13:29:00,79.2,57.2,29.90,West,281,2.0,7.0,47,0.00,,,0.00,Wunderground v.1.15,2013-06-14 17:29:00,
2013-06-14 13:31:00,79.0,58.8,29.90,SSE,148,0.0,3.0,50,0.00,,,0.00,Wunderground v.1.15,2013-06-14 17:31:00,
2013-06-14 13:32:00,78.9,58.1,29.90,SSE,148,1.0,3.0,49,0.00,,,0.00,Wunderground v.1.15,2013-06-14 17:32:00,
2013-06-14 13:34:00,78.9,59.2,29.90,WNW,302,1.0,3.0,51,0.00,,,0.00,Wunderground v.1.15,2013-06-14 17:34:00,
2013-06-14 13:37:00,78.3,57.0,29.90,North,8,1.0,5.0,48,0.00,,,0.00,Wunderground v.1.15,2013-06-14 17:37:00,
2013-06-14 13:38:00,78.2,56.9,29.90,North,353,1.0,6.0,48,0.00,,,0.00,Wunderground v.1.15,2013-06-14 17:38:00,
2013-06-14 13:39:00,78.2,56.9,29.90,North,359,3.0,6.0,48,0.00,,,0.00,Wunderground v.1.15,2013-06-14 17:39:00,
2013-06-14 13:42:00,78.6,56.7,29.90,SE,140,1.0,4.0,47,0.00,,,0.00,Wunderground v.1.15,2013-06-14 17:42:00,
2013-06-14 13:43:00,79.0,58.2,29.90,NNW,329,2.0,4.0,49,0.00,,,0.00,Wunderground v.1.15,2013-06-14 17:43:00,
2013-06-14 13:44:00,79.1,60.5,29.90,NW,318,3.0,4.0,53,0.00,,,0.00,Wunderground v.1.15,2013-06-14 17:44:00,
2013-06-14 13:45:00,79.1,58.3,29.90,ENE,62,3.0,4.0,49,0.00,,,0.00,Wunderground v.1.15,2013-06-14 17:45:00,
2013-06-14 13:47:00,79.1,58.3,29.91,ENE,61,3.0,4.0,49,0.00,,,0.00,Wunderground v.1.15,2013-06-14 17:47:00,
2013-06-14 13:49:00,78.9,58.7,29.90,ENE,61,1.0,4.0,50,0.00,,,0.00,Wunderground v.1.15,2013-06-14 17:49:00,
2013-06-14 13:50:00,78.9,57.5,29.90,ENE,63,1.0,2.0,48,0.00,,,0.00,Wunderground v.1.15,2013-06-14 17:50:00,
2013-06-14 13:52:00,78.7,57.4,29.90,West,276,2.0,5.0,48,0.00,,,0.00,Wunderground v.1.15,2013-06-14 17:52:00,
2013-06-14 13:53:00,78.7,56.8,29.90,NW,324,2.0,5.0,47,0.00,,,0.00,Wunderground v.1.15,2013-06-14 17:53:00,
2013-06-14 13:55:00,78.5,57.7,29.90,NW,305,0.0,5.0,49,0.00,,,0.00,Wunderground v.1.15,2013-06-14 17:55:00,
2013-06-14 13:56:00,78.5,56.6,29.90,NE,51,2.0,5.0,47,0.00,,,0.00,Wunderground v.1.15,2013-06-14 17:56:00,
2013-06-14 13:57:00,78.4,58.2,29.90,East,96,1.0,5.0,50,0.00,,,0.00,Wunderground v.1.15,2013-06-14 17:57:00,
2013-06-14 13:58:00,78.4,57.1,29.90,NE,44,2.0,5.0,48,0.00,,,0.00,Wunderground v.1.15,2013-06-14 17:58:00,
2013-06-14 14:00:00,78.4,57.1,29.90,NE,55,4.0,4.0,48,0.00,,,0.00,Wunderground v.1.15,2013-06-14 18:00:00,
2013-06-14 14:01:00,78.5,58.3,29.90,NNE,12,6.0,6.0,50,0.00,,,0.00,Wunderground v.1.15,2013-06-14 18:01:00,
2013-06-14 14:02:00,78.6,56.1,29.90,West,276,3.0,6.0,46,0.00,,,0.00,Wunderground v.1.15,2013-06-14 18:02:00,
2013-06-14 14:03:00,78.7,57.4,29.90,East,82,2.0,6.0,48,0.00,,,0.00,Wunderground v.1.15,2013-06-14 18:03:00,
2013-06-14 14:05:00,78.9,55.1,29.90,East,84,4.0,6.0,44,0.00,,,0.00,Wunderground v.1.15,2013-06-14 18:05:00,
2013-06-14 14:06:00,79.0,54.6,29.90,East,85,3.0,6.0,43,0.00,,,0.00,Wunderground v.1.15,2013-06-14 18:06:00,
2013-06-14 14:07:00,79.1,56.5,29.90,SW,233,1.0,6.0,46,0.00,,,0.00,Wunderground v.1.15,2013-06-14 18:07:00,
2013-06-14 14:09:00,79.3,54.9,29.90,NE,51,2.0,7.0,43,0.00,,,0.00,Wunderground v.1.15,2013-06-14 18:09:00,
2013-06-14 14:10:00,79.3,57.3,29.90,ENE,69,4.0,4.0,47,0.00,,,0.00,Wunderground v.1.15,2013-06-14 18:10:00,
2013-06-14 14:11:00,79.4,55.6,29.90,ESE,115,1.0,6.0,44,0.00,,,0.00,Wunderground v.1.15,2013-06-14 18:11:00,
2013-06-14 14:12:00,79.4,56.2,29.90,ENE,70,2.0,6.0,45,0.00,,,0.00,Wunderground v.1.15,2013-06-14 18:12:00,
2013-06-14 14:15:00,79.7,57.7,29.90,SW,214,2.0,6.0,47,0.00,,,0.00,Wunderground v.1.15,2013-06-14 18:15:00,
2013-06-14 14:16:00,79.7,57.7,29.90,ENE,76,3.0,6.0,47,0.00,,,0.00,Wunderground v.1.15,2013-06-14 18:16:00,
2013-06-14 14:17:00,79.8,57.2,29.90,East,79,1.0,6.0,46,0.00,,,0.00,Wunderground v.1.15,2013-06-14 18:17:00,
2013-06-14 14:18:00,80.0,58.0,29.90,ENE,61,2.0,6.0,47,0.00,,,0.00,Wunderground v.1.15,2013-06-14 18:18:00,
2013-06-14 14:21:00,80.1,57.5,29.90,South,171,1.0,3.0,46,0.00,,,0.00,Wunderground v.1.15,2013-06-14 18:21:00,
2013-06-14 14:22:00,80.2,56.3,29.90,West,264,2.0,3.0,44,0.00,,,0.00,Wunderground v.1.15,2013-06-14 18:22:00,
2013-06-14 14:24:00,80.4,58.3,29.90,NNE,20,3.0,4.0,47,0.00,,,0.00,Wunderground v.1.15,2013-06-14 18:24:00,
2013-06-14 14:26:00,80.6,57.3,29.90,NNE,18,2.0,4.0,45,0.00,,,0.00,Wunderground v.1.15,2013-06-14 18:26:00,
2013-06-14 14:27:00,80.7,58.6,29.90,WNW,285,2.0,6.0,47,0.00,,,0.00,Wunderground v.1.15,2013-06-14 18:27:00,
2013-06-14 14:30:00,80.7,58.6,29.90,ENE,69,2.0,2.0,47,0.00,,,0.00,Wunderground v.1.15,2013-06-14 18:30:00,
2013-06-14 14:31:00,80.7,56.1,29.90,NNW,330,3.0,4.0,43,0.00,,,0.00,Wunderground v.1.15,2013-06-14 18:31:00,
2013-06-14 14:32:00,80.6,57.9,29.90,WNW,298,1.0,4.0,46,0.00,,,0.00,Wunderground v.1.15,2013-06-14 18:32:00,
2013-06-14 14:33:00,80.6,57.3,29.90,WNW,294,3.0,4.0,45,0.00,,,0.00,Wunderground v.1.15,2013-06-14 18:33:00,
2013-06-14 14:35:00,80.7,57.4,29.91,NE,56,2.0,5.0,45,0.00,,,0.00,Wunderground v.1.15,2013-06-14 18:35:00,
2013-06-14 14:36:00,80.7,57.4,29.91,WSW,252,4.0,5.0,45,0.00,,,0.00,Wunderground v.1.15,2013-06-14 18:36:00,
2013-06-14 14:37:00,80.7,55.5,29.91,NNE,18,2.0,5.0,42,0.00,,,0.00,Wunderground v.1.15,2013-06-14 18:37:00,
2013-06-14 14:38:00,80.7,57.4,29.91,North,356,4.0,5.0,45,0.00,,,0.00,Wunderground v.1.15,2013-06-14 18:38:00,
2013-06-14 14:40:00,80.8,58.7,29.91,North,351,2.0,3.0,47,0.00,,,0.00,Wunderground v.1.15,2013-06-14 18:40:00,
2013-06-14 14:41:00,80.7,55.5,29.91,ESE,122,3.0,7.0,42,0.00,,,0.00,Wunderground v.1.15,2013-06-14 18:41:00,
2013-06-14 14:42:00,80.8,56.9,29.91,North,356,1.0,7.0,44,0.00,,,0.00,Wunderground v.1.15,2013-06-14 18:42:00,
2013-06-14 14:43:00,80.8,56.9,29.91,NE,51,3.0,7.0,44,0.00,,,0.00,Wunderground v.1.15,2013-06-14 18:43:00,
2013-06-14 14:45:00,80.7,56.8,29.90,NE,37,4.0,7.0,44,0.00,,,0.00,Wunderground v.1.15,2013-06-14 18:45:00,
2013-06-14 14:46:00,80.6,56.0,29.90,WNW,283,2.0,7.0,43,0.00,,,0.00,Wunderground v.1.15,2013-06-14 18:46:00,
2013-06-14 14:47:00,80.6,56.7,29.90,NNE,27,1.0,7.0,44,0.00,,,0.00,Wunderground v.1.15,2013-06-14 18:47:00,
2013-06-14 14:48:00,80.7,58.0,29.91,ENE,74,3.0,7.0,46,0.00,,,0.00,Wunderground v.1.15,2013-06-14 18:48:00,
2013-06-14 14:50:00,80.6,56.7,29.91,WSW,256,1.0,5.0,44,0.00,,,0.00,Wunderground v.1.15,2013-06-14 18:50:00,
2013-06-14 14:51:00,80.6,56.7,29.91,NNW,333,2.0,5.0,44,0.00,,,0.00,Wunderground v.1.15,2013-06-14 18:51:00,
2013-06-14 14:52:00,80.6,59.7,29.91,NNE,33,1.0,5.0,49,0.00,,,0.00,Wunderground v.1.15,2013-06-14 18:52:00,
2013-06-14 14:54:00,80.7,58.0,29.91,NNW,327,2.0,5.0,46,0.00,,,0.00,Wunderground v.1.15,2013-06-14 18:54:00,
2013-06-14 14:55:00,80.7,59.2,29.90,NW,324,2.0,5.0,48,0.00,,,0.00,Wunderground v.1.15,2013-06-14 18:55:00,
2013-06-14 14:56:00,80.8,58.7,29.90,ENE,63,4.0,5.0,47,0.00,,,0.00,Wunderground v.1.15,2013-06-14 18:56:00,
2013-06-14 14:57:00,80.8,58.1,29.90,NNW,340,2.0,5.0,46,0.00,,,0.00,Wunderground v.1.15,2013-06-14 18:57:00,
2013-06-14 14:59:00,80.8,58.7,29.91,ENE,64,1.0,5.0,47,0.00,,,0.00,Wunderground v.1.15,2013-06-14 18:59:00,
2013-06-14 15:00:00,80.9,60.5,29.90,WNW,288,2.0,3.0,50,0.00,,,0.00,Wunderground v.1.15,2013-06-14 19:00:00,
2013-06-14 15:02:00,80.9,58.2,29.90,NE,51,1.0,5.0,46,0.00,,,0.00,Wunderground v.1.15,2013-06-14 19:02:00,
2013-06-14 15:04:00,81.0,58.9,29.90,WNW,302,3.0,5.0,47,0.00,,,0.00,Wunderground v.1.15,2013-06-14 19:04:00,
2013-06-14 15:05:00,81.0,58.9,29.91,ESE,117,2.0,5.0,47,0.00,,,0.00,Wunderground v.1.15,2013-06-14 19:05:00,
2013-06-14 15:07:00,81.1,60.7,29.91,East,79,4.0,5.0,50,0.00,,,0.00,Wunderground v.1.15,2013-06-14 19:07:00,
2013-06-14 15:08:00,81.1,59.6,29.90,NNW,338,1.0,5.0,48,0.00,,,0.00,Wunderground v.1.15,2013-06-14 19:08:00,
2013-06-14 15:09:00,81.1,57.7,29.90,NW,313,3.0,10.0,45,0.00,,,0.00,Wunderground v.1.15,2013-06-14 19:09:00,
2013-06-14 15:10:00,81.0,58.9,29.90,ENE,67,1.0,2.0,47,0.00,,,0.00,Wunderground v.1.15,2013-06-14 19:10:00,
2013-06-14 15:12:00,81.0,60.0,29.91,ESE,120,2.0,7.0,49,0.00,,,0.00,Wunderground v.1.15,2013-06-14 19:12:00,
2013-06-14 15:13:00,80.9,55.7,29.91,WNW,300,2.0,7.0,42,0.00,,,0.00,Wunderground v.1.15,2013-06-14 19:13:00,
2013-06-14 15:14:00,80.9,55.7,29.91,North,349,1.0,7.0,42,0.00,,,0.00,Wunderground v.1.15,2013-06-14 19:14:00,
2013-06-14 15:16:00,80.9,58.2,29.91,SSW,207,0.0,7.0,46,0.00,,,0.00,Wunderground v.1.15,2013-06-14 19:16:00,
2013-06-14 15:18:00,80.9,58.2,29.91,ESE,102,2.0,7.0,46,0.00,,,0.00,Wunderground v.1.15,2013-06-14 19:18:00,
2013-06-14 15:19:00,81.0,60.0,29.91,South,185,6.0,8.0,49,0.00,,,0.00,Wunderground v.1.15,2013-06-14 19:19:00,
2013-06-14 15:21:00,80.8,58.1,29.91,WNW,291,2.0,7.0,46,0.00,,,0.00,Wunderground v.1.15,2013-06-14 19:21:00,
2013-06-14 15:23:00,80.4,57.1,29.90,WSW,240,1.0,7.0,45,0.00,,,0.00,Wunderground v.1.15,2013-06-14 19:23:00,
2013-06-14 15:24:00,80.3,57.0,29.91,NNW,342,1.0,7.0,45,0.00,,,0.00,Wunderground v.1.15,2013-06-14 19:24:00,
2013-06-14 15:26:00,80.4,58.3,29.91,NE,37,1.0,7.0,47,0.00,,,0.00,Wunderground v.1.15,2013-06-14 19:26:00,
2013-06-14 15:29:00,80.6,59.7,29.91,East,79,2.0,7.0,49,0.00,,,0.00,Wunderground v.1.15,2013-06-14 19:29:00,
2013-06-14 15:30:00,80.6,57.3,29.91,North,359,1.0,2.0,45,0.00,,,0.00,Wunderground v.1.15,2013-06-14 19:30:00,
2013-06-14 15:31:00,80.8,57.5,29.91,NNW,340,1.0,3.0,45,0.00,,,0.00,Wunderground v.1.15,2013-06-14 19:31:00,
2013-06-14 15:34:00,81.0,58.9,29.91,North,10,1.0,5.0,47,0.00,,,0.00,Wunderground v.1.15,2013-06-14 19:34:00,
2013-06-14 15:35:00,81.0,60.0,29.91,ENE,61,3.0,5.0,49,0.00,,,0.00,Wunderground v.1.15,2013-06-14 19:35:00,
2013-06-14 15:36:00,80.9,58.2,29.91,ENE,70,3.0,5.0,46,0.00,,,0.00,Wunderground v.1.15,2013-06-14 19:36:00,
2013-06-14 15:39:00,80.4,57.1,29.91,ENE,70,2.0,5.0,45,0.00,,,0.00,Wunderground v.1.15,2013-06-14 19:39:00,
2013-06-14 15:40:00,80.3,57.6,29.91,ENE,57,2.0,3.0,46,0.00,,,0.00,Wunderground v.1.15,2013-06-14 19:40:00,
2013-06-14 15:42:00,79.9,56.0,29.91,SW,219,0.0,4.0,44,0.00,,,0.00,Wunderground v.1.15,2013-06-14 19:42:00,
2013-06-14 15:44:00,79.5,56.3,29.91,NNE,27,2.0,7.0,45,0.00,,,0.00,Wunderground v.1.15,2013-06-14 19:44:00,
2013-06-14 15:45:00,79.5,57.5,29.91,ENE,58,3.0,7.0,47,0.00,,,0.00,Wunderground v.1.15,2013-06-14 19:45:00,
2013-06-14 15:47:00,79.5,56.3,29.91,ENE,71,2.0,7.0,45,0.00,,,0.00,Wunderground v.1.15,2013-06-14 19:47:00,
2013-06-14 15:50:00,79.4,58.0,29.91,NE,38,3.0,7.0,48,0.00,,,0.00,Wunderground v.1.15,2013-06-14 19:50:00,
2013-06-14 15:52:00,79.1,58.3,29.91,SSW,198,1.0,2.0,49,0.00,,,0.00,Wunderground v.1.15,2013-06-14 19:52:00,
2013-06-14 15:55:00,78.5,57.7,29.91,NE,44,1.0,5.0,49,0.00,,,0.00,Wunderground v.1.15,2013-06-14 19:55:00,
2013-06-14 15:56:00,78.4,57.1,29.91,NE,44,1.0,5.0,48,0.00,,,0.00,Wunderground v.1.15,2013-06-14 19:56:00,
2013-06-14 15:57:00,78.3,60.3,29.91,ENE,60,1.0,5.0,54,0.00,,,0.00,Wunderground v.1.15,2013-06-14 19:57:00,
2013-06-14 16:00:00,78.3,59.2,29.91,East,84,2.0,2.0,52,0.00,,,0.00,Wunderground v.1.15,2013-06-14 20:00:00,
2013-06-14 16:01:00,78.4,57.7,29.91,NE,56,2.0,6.0,49,0.00,,,0.00,Wunderground v.1.15,2013-06-14 20:01:00,
2013-06-14 16:02:00,78.5,57.2,29.91,ENE,58,1.0,6.0,48,0.00,,,0.00,Wunderground v.1.15,2013-06-14 20:02:00,
2013-06-14 16:03:00,78.6,57.8,29.91,NE,34,6.0,6.0,49,0.00,,,0.00,Wunderground v.1.15,2013-06-14 20:03:00,
2013-06-14 16:05:00,78.4,56.5,29.91,NE,36,2.0,6.0,47,0.00,,,0.00,Wunderground v.1.15,2013-06-14 20:05:00,
2013-06-14 16:06:00,78.4,55.9,29.91,ENE,58,1.0,6.0,46,0.00,,,0.00,Wunderground v.1.15,2013-06-14 20:06:00,
2013-06-14 16:07:00,78.4,55.9,29.91,ENE,70,2.0,6.0,46,0.00,,,0.00,Wunderground v.1.15,2013-06-14 20:07:00,
2013-06-14 16:08:00,78.4,58.2,29.91,NE,51,3.0,7.0,50,0.00,,,0.00,Wunderground v.1.15,2013-06-14 20:08:00,
2013-06-14 16:10:00,78.5,57.7,29.91,NNE,30,4.0,4.0,49,0.00,,,0.00,Wunderground v.1.15,2013-06-14 20:10:00,
2013-06-14 16:11:00,78.6,57.8,29.91,ENE,72,2.0,4.0,49,0.00,,,0.00,Wunderground v.1.15,2013-06-14 20:11:00,
2013-06-14 16:12:00,78.8,57.4,29.90,WNW,285,3.0,6.0,48,0.00,,,0.00,Wunderground v.1.15,2013-06-14 20:12:00,
2013-06-14 16:13:00,78.9,58.7,29.91,NNW,328,1.0,6.0,50,0.00,,,0.00,Wunderground v.1.15,2013-06-14 20:13:00,
2013-06-14 16:15:00,79.1,57.7,29.90,NNW,346,2.0,6.0,48,0.00,,,0.00,Wunderground v.1.15,2013-06-14 20:15:00,
2013-06-14 16:16:00,79.1,57.7,29.90,NE,38,2.0,6.0,48,0.00,,,0.00,Wunderground v.1.15,2013-06-14 20:16:00,
2013-06-14 16:17:00,79.2,57.8,29.90,NE,41,1.0,6.0,48,0.00,,,0.00,Wunderground v.1.15,2013-06-14 20:17:00,
2013-06-14 16:19:00,79.5,58.7,29.91,NNE,13,1.0,6.0,49,0.00,,,0.00,Wunderground v.1.15,2013-06-14 20:19:00,
2013-06-14 16:20:00,79.7,60.0,29.91,NNE,25,1.0,2.0,51,0.00,,,0.00,Wunderground v.1.15,2013-06-14 20:20:00,
2013-06-14 16:21:00,79.7,60.0,29.91,East,101,2.0,2.0,51,0.00,,,0.00,Wunderground v.1.15,2013-06-14 20:21:00,
2013-06-14 16:22:00,79.8,59.5,29.91,WSW,243,1.0,3.0,50,0.00,,,0.00,Wunderground v.1.15,2013-06-14 20:22:00,
2013-06-14 16:24:00,80.0,59.1,29.91,East,94,4.0,4.0,49,0.00,,,0.00,Wunderground v.1.15,2013-06-14 20:24:00,
2013-06-14 16:25:00,80.0,58.0,29.90,South,173,2.0,4.0,47,0.00,,,0.00,Wunderground v.1.15,2013-06-14 20:25:00,
2013-06-14 16:26:00,80.0,58.0,29.90,WSW,258,2.0,4.0,47,0.00,,,0.00,Wunderground v.1.15,2013-06-14 20:26:00,
2013-06-14 16:27:00,80.0,58.5,29.91,WSW,257,1.0,4.0,48,0.00,,,0.00,Wunderground v.1.15,2013-06-14 20:27:00,
2013-06-14 16:30:00,80.1,60.9,29.90,West,262,1.0,2.0,52,0.00,,,0.00,Wunderground v.1.15,2013-06-14 20:30:00,
2013-06-14 16:31:00,80.1,59.8,29.90,West,267,1.0,2.0,50,0.00,,,0.00,Wunderground v.1.15,2013-06-14 20:31:00,
2013-06-14 16:32:00,80.2,59.9,29.90,NNE,12,3.0,3.0,50,0.00,,,0.00,Wunderground v.1.15,2013-06-14 20:32:00,
2013-06-14 16:35:00,79.8,58.4,29.90,NNE,17,3.0,6.0,48,0.00,,,0.00,Wunderground v.1.15,2013-06-14 20:35:00,
2013-06-14 16:36:00,79.7,58.3,29.90,ENE,63,2.0,6.0,48,0.00,,,0.00,Wunderground v.1.15,2013-06-14 20:36:00,
2013-06-14 16:37:00,79.6,58.2,29.90,SW,236,1.0,6.0,48,0.00,,,0.00,Wunderground v.1.15,2013-06-14 20:37:00,
2013-06-14 16:38:00,79.5,58.7,29.90,NNE,20,3.0,6.0,49,0.00,,,0.00,Wunderground v.1.15,2013-06-14 20:38:00,
2013-06-14 16:40:00,79.4,58.0,29.90,NNE,21,3.0,4.0,48,0.00,,,0.00,Wunderground v.1.15,2013-06-14 20:40:00,
2013-06-14 16:41:00,79.4,58.6,29.90,NNE,21,1.0,4.0,49,0.00,,,0.00,Wunderground v.1.15,2013-06-14 20:41:00,
2013-06-14 16:42:00,79.4,59.7,29.90,ENE,65,1.0,4.0,51,0.00,,,0.00,Wunderground v.1.15,2013-06-14 20:42:00,
2013-06-14 16:44:00,79.4,59.1,29.90,NNW,344,4.0,4.0,50,0.00,,,0.00,Wunderground v.1.15,2013-06-14 20:44:00,
2013-06-14 16:45:00,79.3,57.3,29.90,NW,324,3.0,4.0,47,0.00,,,0.00,Wunderground v.1.15,2013-06-14 20:45:00,
2013-06-14 16:46:00,79.3,57.3,29.91,North,356,4.0,5.0,47,0.00,,,0.00,Wunderground v.1.15,2013-06-14 20:46:00,
2013-06-14 16:47:00,79.2,59.0,29.91,WNW,293,3.0,7.0,50,0.00,,,0.00,Wunderground v.1.15,2013-06-14 20:47:00,
2013-06-14 16:49:00,79.2,56.6,29.91,North,3,1.0,7.0,46,0.00,,,0.00,Wunderground v.1.15,2013-06-14 20:49:00,
2013-06-14 16:50:00,79.2,59.5,29.90,ENE,72,1.0,2.0,51,0.00,,,0.00,Wunderground v.1.15,2013-06-14 20:50:00,
2013-06-14 16:51:00,79.2,59.5,29.90,NE,49,3.0,3.0,51,0.00,,,0.00,Wunderground v.1.15,2013-06-14 20:51:00,
2013-06-14 16:52:00,79.2,57.2,29.90,ESE,118,2.0,4.0,47,0.00,,,0.00,Wunderground v.1.15,2013-06-14 20:52:00,
2013-06-14 16:54:00,79.2,58.4,29.90,NNW,339,1.0,4.0,49,0.00,,,0.00,Wunderground v.1.15,2013-06-14 20:54:00,
2013-06-14 16:55:00,79.2,57.2,29.91,North,349,2.0,8.0,47,0.00,,,0.00,Wunderground v.1.15,2013-06-14 20:55:00,
2013-06-14 16:56:00,79.2,57.2,29.91,NNE,32,1.0,8.0,47,0.00,,,0.00,Wunderground v.1.15,2013-06-14 20:56:00,
2013-06-14 16:57:00,79.2,57.8,29.90,NE,41,2.0,8.0,48,0.00,,,0.00,Wunderground v.1.15,2013-06-14 20:57:00,
2013-06-14 16:58:00,79.2,57.8,29.90,East,89,2.0,8.0,48,0.00,,,0.00,Wunderground v.1.15,2013-06-14 20:58:00,
2013-06-14 16:59:00,79.2,60.1,29.91,NW,324,1.0,8.0,52,0.00,,,0.00,Wunderground v.1.15,2013-06-14 20:59:00,
2013-06-14 17:00:00,79.2,59.0,29.91,East,81,2.0,2.0,50,0.00,,,0.00,Wunderground v.1.15,2013-06-14 21:00:00,
2013-06-14 17:01:00,79.3,58.5,29.91,West,260,3.0,3.0,49,0.00,,,0.00,Wunderground v.1.15,2013-06-14 21:01:00,
2013-06-14 17:02:00,79.3,59.0,29.91,NNW,340,3.0,4.0,50,0.00,,,0.00,Wunderground v.1.15,2013-06-14 21:02:00,
2013-06-14 17:03:00,79.2,58.4,29.91,WNW,299,2.0,4.0,49,0.00,,,0.00,Wunderground v.1.15,2013-06-14 21:03:00,
2013-06-14 17:04:00,79.2,60.1,29.91,WNW,300,0.0,4.0,52,0.00,,,0.00,Wunderground v.1.15,2013-06-14 21:04:00,
2013-06-14 17:05:00,79.1,58.3,29.91,NNE,20,2.0,4.0,49,0.00,,,0.00,Wunderground v.1.15,2013-06-14 21:05:00,
2013-06-14 17:07:00,79.1,60.0,29.91,NE,44,0.0,4.0,52,0.00,,,0.00,Wunderground v.1.15,2013-06-14 21:07:00,
2013-06-14 17:08:00,79.1,58.9,29.91,NE,45,1.0,4.0,50,0.00,,,0.00,Wunderground v.1.15,2013-06-14 21:08:00,
2013-06-14 17:10:00,79.0,58.8,29.91,NNE,25,0.0,2.0,50,0.00,,,0.00,Wunderground v.1.15,2013-06-14 21:10:00,
2013-06-14 17:12:00,79.0,58.2,29.91,NW,316,1.0,2.0,49,0.00,,,0.00,Wunderground v.1.15,2013-06-14 21:12:00,
2013-06-14 17:13:00,78.9,58.7,29.91,NW,318,1.0,2.0,50,0.00,,,0.00,Wunderground v.1.15,2013-06-14 21:13:00,
2013-06-14 17:15:00,78.9,59.2,29.91,East,85,1.0,3.0,51,0.00,,,0.00,Wunderground v.1.15,2013-06-14 21:15:00,
2013-06-14 17:16:00,78.8,58.6,29.91,West,281,2.0,3.0,50,0.00,,,0.00,Wunderground v.1.15,2013-06-14 21:16:00,
2013-06-14 17:17:00,78.8,58.6,29.91,East,82,0.0,3.0,50,0.00,,,0.00,Wunderground v.1.15,2013-06-14 21:17:00,
2013-06-14 17:18:00,78.8,58.6,29.91,East,80,0.0,3.0,50,0.00,,,0.00,Wunderground v.1.15,2013-06-14 21:18:00,
2013-06-14 17:19:00,78.9,59.2,29.91,NNE,32,1.0,3.0,51,0.00,,,0.00,Wunderground v.1.15,2013-06-14 21:19:00,
2013-06-14 17:20:00,78.9,59.8,29.91,NNE,32,0.0,1.0,52,0.00,,,0.00,Wunderground v.1.15,2013-06-14 21:20:00,
2013-06-14 17:21:00,78.9,57.5,29.91,East,88,2.0,6.0,48,0.00,,,0.00,Wunderground v.1.15,2013-06-14 21:21:00,
2013-06-14 17:22:00,78.9,59.8,29.91,NW,321,3.0,6.0,52,0.00,,,0.00,Wunderground v.1.15,2013-06-14 21:22:00,
2013-06-14 17:23:00,78.9,59.2,29.91,NNE,20,2.0,6.0,51,0.00,,,0.00,Wunderground v.1.15,2013-06-14 21:23:00,
2013-06-14 17:24:00,78.8,58.0,29.91,NW,324,0.0,6.0,49,0.00,,,0.00,Wunderground v.1.15,2013-06-14 21:24:00,
2013-06-14 17:25:00,78.8,60.7,29.91,NNW,332,0.0,6.0,54,0.00,,,0.00,Wunderground v.1.15,2013-06-14 21:25:00,
2013-06-14 17:26:00,78.7,58.5,29.91,NNE,15,1.0,6.0,50,0.00,,,0.00,Wunderground v.1.15,2013-06-14 21:26:00,
2013-06-14 17:27:00,78.7,58.5,29.91,East,98,1.0,6.0,50,0.00,,,0.00,Wunderground v.1.15,2013-06-14 21:27:00,
2013-06-14 17:28:00,78.7,59.6,29.91,ENE,74,2.0,6.0,52,0.00,,,0.00,Wunderground v.1.15,2013-06-14 21:28:00,
2013-06-14 17:29:00,78.7,57.9,29.91,ENE,57,2.0,6.0,49,0.00,,,0.00,Wunderground v.1.15,2013-06-14 21:29:00,
2013-06-14 17:30:00,78.7,57.9,29.91,NE,43,1.0,2.0,49,0.00,,,0.00,Wunderground v.1.15,2013-06-14 21:30:00,
2013-06-14 17:31:00,78.7,59.0,29.91,ENE,71,2.0,2.0,51,0.00,,,0.00,Wunderground v.1.15,2013-06-14 21:31:00,
2013-06-14 17:32:00,78.7,59.0,29.91,East,84,1.0,2.0,51,0.00,,,0.00,Wunderground v.1.15,2013-06-14 21:32:00,
2013-06-14 17:33:00,78.7,58.5,29.91,ENE,77,1.0,2.0,50,0.00,,,0.00,Wunderground v.1.15,2013-06-14 21:33:00,
2013-06-14 17:34:00,78.7,57.9,29.91,East,89,1.0,3.0,49,0.00,,,0.00,Wunderground v.1.15,2013-06-14 21:34:00,
2013-06-14 17:35:00,78.7,57.9,29.91,WNW,287,3.0,3.0,49,0.00,,,0.00,Wunderground v.1.15,2013-06-14 21:35:00,
2013-06-14 17:36:00,78.7,57.9,29.91,NNW,328,0.0,3.0,49,0.00,,,0.00,Wunderground v.1.15,2013-06-14 21:36:00,
2013-06-14 17:38:00,78.6,57.8,29.91,NNW,338,1.0,3.0,49,0.00,,,0.00,Wunderground v.1.15,2013-06-14 21:38:00,
2013-06-14 17:39:00,78.6,57.8,29.91,WNW,302,1.0,3.0,49,0.00,,,0.00,Wunderground v.1.15,2013-06-14 21:39:00,
2013-06-14 17:40:00,78.6,58.4,29.91,NNW,347,0.0,2.0,50,0.00,,,0.00,Wunderground v.1.15,2013-06-14 21:40:00,
2013-06-14 17:42:00,78.6,59.0,29.91,North,349,1.0,2.0,51,0.00,,,0.00,Wunderground v.1.15,2013-06-14 21:42:00,
2013-06-14 17:43:00,78.5,58.3,29.91,SE,132,0.0,2.0,50,0.00,,,0.00,Wunderground v.1.15,2013-06-14 21:43:00,
2013-06-14 17:45:00,78.5,59.4,29.91,NNW,340,1.0,2.0,52,0.00,,,0.00,Wunderground v.1.15,2013-06-14 21:45:00,
2013-06-14 17:46:00,78.5,58.9,29.90,NE,46,0.0,3.0,51,0.00,,,0.00,Wunderground v.1.15,2013-06-14 21:46:00,
2013-06-14 17:47:00,78.5,58.3,29.90,WSW,243,0.0,3.0,50,0.00,,,0.00,Wunderground v.1.15,2013-06-14 21:47:00,
2013-06-14 17:48:00,78.5,58.9,29.90,WSW,243,1.0,3.0,51,0.00,,,0.00,Wunderground v.1.15,2013-06-14 21:48:00,
2013-06-14 17:49:00,78.5,59.9,29.90,WSW,243,0.0,3.0,53,0.00,,,0.00,Wunderground v.1.15,2013-06-14 21:49:00,
2013-06-14 17:50:00,78.4,59.9,29.91,West,271,1.0,2.0,53,0.00,,,0.00,Wunderground v.1.15,2013-06-14 21:50:00,
2013-06-14 17:51:00,78.4,57.7,29.90,WNW,302,1.0,2.0,49,0.00,,,0.00,Wunderground v.1.15,2013-06-14 21:51:00,
2013-06-14 17:53:00,78.4,59.9,29.91,West,277,2.0,2.0,53,0.00,,,0.00,Wunderground v.1.15,2013-06-14 21:53:00,
2013-06-14 17:54:00,78.4,58.2,29.91,North,7,1.0,3.0,50,0.00,,,0.00,Wunderground v.1.15,2013-06-14 21:54:00,
2013-06-14 17:55:00,78.3,58.7,29.91,North,360,1.0,3.0,51,0.00,,,0.00,Wunderground v.1.15,2013-06-14 21:55:00,
2013-06-14 17:56:00,78.2,58.0,29.91,NNE,14,1.0,3.0,50,0.00,,,0.00,Wunderground v.1.15,2013-06-14 21:56:00,
2013-06-14 17:58:00,78.2,57.5,29.91,NE,37,1.0,3.0,49,0.00,,,0.00,Wunderground v.1.15,2013-06-14 21:58:00,
2013-06-14 17:59:00,78.2,58.0,29.91,ENE,58,1.0,3.0,50,0.00,,,0.00,Wunderground v.1.15,2013-06-14 21:59:00,
2013-06-14 18:00:00,78.2,57.5,29.91,NNE,27,3.0,6.0,49,0.00,,,0.00,Wunderground v.1.15,2013-06-14 22:00:00,
2013-06-14 18:02:00,78.1,57.4,29.91,ENE,72,1.0,6.0,49,0.00,,,0.00,Wunderground v.1.15,2013-06-14 22:02:00,
2013-06-14 18:03:00,78.1,56.8,29.91,ENE,67,1.0,6.0,48,0.00,,,0.00,Wunderground v.1.15,2013-06-14 22:03:00,
2013-06-14 18:04:00,78.0,57.3,29.91,NE,51,1.0,6.0,49,0.00,,,0.00,Wunderground v.1.15,2013-06-14 22:04:00,
2013-06-14 18:05:00,78.0,57.3,29.91,West,266,1.0,6.0,49,0.00,,,0.00,Wunderground v.1.15,2013-06-14 22:05:00,
2013-06-14 18:07:00,77.8,57.7,29.91,North,1,1.0,6.0,50,0.00,,,0.00,Wunderground v.1.15,2013-06-14 22:07:00,
2013-06-14 18:08:00,77.8,57.7,29.91,NNW,340,0.0,6.0,50,0.00,,,0.00,Wunderground v.1.15,2013-06-14 22:08:00,
2013-06-14 18:10:00,77.7,58.1,29.91,NE,34,1.0,2.0,51,0.00,,,0.00,Wunderground v.1.15,2013-06-14 22:10:00,
2013-06-14 18:12:00,77.6,56.9,29.91,NE,51,2.0,2.0,49,0.00,,,0.00,Wunderground v.1.15,2013-06-14 22:12:00,
2013-06-14 18:13:00,77.6,57.5,29.91,NE,51,1.0,2.0,50,0.00,,,0.00,Wunderground v.1.15,2013-06-14 22:13:00,
2013-06-14 18:14:00,77.6,56.9,29.91,West,281,2.0,3.0,49,0.00,,,0.00,Wunderground v.1.15,2013-06-14 22:14:00,
2013-06-14 18:15:00,77.6,57.5,29.91,SE,146,2.0,3.0,50,0.00,,,0.00,Wunderground v.1.15,2013-06-14 22:15:00,
2013-06-14 18:16:00,77.6,56.9,29.91,ESE,120,1.0,7.0,49,0.00,,,0.00,Wunderground v.1.15,2013-06-14 22:16:00,
2013-06-14 18:17:00,77.6,56.9,29.91,NE,46,1.0,7.0,49,0.00,,,0.00,Wunderground v.1.15,2013-06-14 22:17:00,
2013-06-14 18:18:00,77.6,56.4,29.91,NE,50,5.0,7.0,48,0.00,,,0.00,Wunderground v.1.15,2013-06-14 22:18:00,
2013-06-14 18:19:00,77.6,55.8,29.91,West,280,3.0,7.0,47,0.00,,,0.00,Wunderground v.1.15,2013-06-14 22:19:00,
2013-06-14 18:20:00,77.5,56.8,29.91,NE,52,2.0,2.0,49,0.00,,,0.00,Wunderground v.1.15,2013-06-14 22:20:00,
2013-06-14 18:21:00,77.5,57.4,29.91,NE,52,1.0,2.0,50,0.00,,,0.00,Wunderground v.1.15,2013-06-14 22:21:00,
2013-06-14 18:23:00,77.4,56.7,29.91,NE,51,1.0,2.0,49,0.00,,,0.00,Wunderground v.1.15,2013-06-14 22:23:00,
2013-06-14 18:24:00,77.4,55.0,29.91,East,83,1.0,6.0,46,0.00,,,0.00,Wunderground v.1.15,2013-06-14 22:24:00,
2013-06-14 18:25:00,77.4,56.2,29.91,East,91,2.0,6.0,48,0.00,,,0.00,Wunderground v.1.15,2013-06-14 22:25:00,
2013-06-14 18:26:00,77.3,55.5,29.91,ESE,111,1.0,7.0,47,0.00,,,0.00,Wunderground v.1.15,2013-06-14 22:26:00,
2013-06-14 18:28:00,77.3,56.1,29.91,NE,39,3.0,7.0,48,0.00,,,0.00,Wunderground v.1.15,2013-06-14 22:28:00,
2013-06-14 18:29:00,77.3,56.6,29.92,NNE,23,5.0,7.0,49,0.00,,,0.00,Wunderground v.1.15,2013-06-14 22:29:00,
2013-06-14 18:30:00,77.3,56.1,29.92,ENE,63,4.0,4.0,48,0.00,,,0.00,Wunderground v.1.15,2013-06-14 22:30:00,
2013-06-14 18:31:00,77.3,55.5,29.91,NNW,347,3.0,4.0,47,0.00,,,0.00,Wunderground v.1.15,2013-06-14 22:31:00,
2013-06-14 18:33:00,77.4,56.2,29.92,NNE,27,2.0,4.0,48,0.00,,,0.00,Wunderground v.1.15,2013-06-14 22:33:00,
2013-06-14 18:34:00,77.4,56.2,29.92,NNE,27,0.0,4.0,48,0.00,,,0.00,Wunderground v.1.15,2013-06-14 22:34:00,
2013-06-14 18:35:00,77.4,56.2,29.92,North,7,0.0,4.0,48,0.00,,,0.00,Wunderground v.1.15,2013-06-14 22:35:00,
2013-06-14 18:36:00,77.4,56.7,29.92,North,8,0.0,4.0,49,0.00,,,0.00,Wunderground v.1.15,2013-06-14 22:36:00,
2013-06-14 18:38:00,77.5,57.4,29.92,North,8,0.0,4.0,50,0.00,,,0.00,Wunderground v.1.15,2013-06-14 22:38:00,
2013-06-14 18:39:00,77.5,56.8,29.92,NNW,342,2.0,4.0,49,0.00,,,0.00,Wunderground v.1.15,2013-06-14 22:39:00,
2013-06-14 18:40:00,77.5,56.3,29.92,North,11,2.0,3.0,48,0.00,,,0.00,Wunderground v.1.15,2013-06-14 22:40:00,
2013-06-14 18:41:00,77.5,57.4,29.92,NNW,336,1.0,3.0,50,0.00,,,0.00,Wunderground v.1.15,2013-06-14 22:41:00,
2013-06-14 18:42:00,77.5,57.4,29.92,NNW,336,1.0,3.0,50,0.00,,,0.00,Wunderground v.1.15,2013-06-14 22:42:00,
2013-06-14 18:43:00,77.4,56.7,29.92,NNW,336,1.0,3.0,49,0.00,,,0.00,Wunderground v.1.15,2013-06-14 22:43:00,
2013-06-14 18:44:00,77.4,57.9,29.92,NNW,336,0.0,3.0,51,0.00,,,0.00,Wunderground v.1.15,2013-06-14 22:44:00,
2013-06-14 18:45:00,77.4,57.9,29.92,NNW,336,1.0,3.0,51,0.00,,,0.00,Wunderground v.1.15,2013-06-14 22:45:00,
2013-06-14 18:46:00,77.4,57.9,29.92,NNW,336,0.0,3.0,51,0.00,,,0.00,Wunderground v.1.15,2013-06-14 22:46:00,
2013-06-14 18:47:00,77.4,57.9,29.92,NNW,336,0.0,3.0,51,0.00,,,0.00,Wunderground v.1.15,2013-06-14 22:47:00,
2013-06-14 18:49:00,77.4,60.0,29.92,SSW,195,1.0,3.0,55,0.00,,,0.00,Wunderground v.1.15,2013-06-14 22:49:00,
2013-06-14 18:50:00,77.3,58.3,29.92,NNW,333,1.0,1.0,52,0.00,,,0.00,Wunderground v.1.15,2013-06-14 22:50:00,
2013-06-14 18:51:00,77.3,58.3,29.92,NE,45,3.0,3.0,52,0.00,,,0.00,Wunderground v.1.15,2013-06-14 22:51:00,
2013-06-14 18:52:00,77.3,58.3,29.92,NNW,328,1.0,3.0,52,0.00,,,0.00,Wunderground v.1.15,2013-06-14 22:52:00,
2013-06-14 18:54:00,77.2,58.7,29.92,NE,41,0.0,4.0,53,0.00,,,0.00,Wunderground v.1.15,2013-06-14 22:54:00,
2013-06-14 18:56:00,77.2,57.7,29.93,NE,41,0.0,4.0,51,0.00,,,0.00,Wunderground v.1.15,2013-06-14 22:56:00,
2013-06-14 18:57:00,77.2,59.3,29.93,NE,41,0.0,4.0,54,0.00,,,0.00,Wunderground v.1.15,2013-06-14 22:57:00,
2013-06-14 19:00:00,77.3,58.8,29.92,ENE,70,2.0,2.0,53,0.00,,,0.00,Wunderground v.1.15,2013-06-14 23:00:00,
2013-06-14 19:01:00,77.3,58.8,29.92,ENE,70,1.0,2.0,53,0.00,,,0.00,Wunderground v.1.15,2013-06-14 23:01:00,
2013-06-14 19:02:00,77.4,58.9,29.92,ENE,70,0.0,2.0,53,0.00,,,0.00,Wunderground v.1.15,2013-06-14 23:02:00,
2013-06-14 19:05:00,77.6,56.9,29.92,NE,53,1.0,2.0,49,0.00,,,0.00,Wunderground v.1.15,2013-06-14 23:05:00,
2013-06-14 19:06:00,77.6,58.6,29.92,NE,54,1.0,2.0,52,0.00,,,0.00,Wunderground v.1.15,2013-06-14 23:06:00,
2013-06-14 19:07:00,77.5,60.1,29.92,NNE,14,1.0,2.0,55,0.00,,,0.00,Wunderground v.1.15,2013-06-14 23:07:00,
2013-06-14 19:08:00,77.4,59.5,29.92,NNE,15,1.0,2.0,54,0.00,,,0.00,Wunderground v.1.15,2013-06-14 23:08:00,
2013-06-14 19:10:00,77.3,60.4,29.92,SW,222,0.0,1.0,56,0.00,,,0.00,Wunderground v.1.15,2013-06-14 23:10:00,
2013-06-14 19:11:00,77.2,58.7,29.92,SW,222,0.0,1.0,53,0.00,,,0.00,Wunderground v.1.15,2013-06-14 23:11:00,
2013-06-14 19:13:00,77.1,58.6,29.92,SW,222,0.0,1.0,53,0.00,,,0.00,Wunderground v.1.15,2013-06-14 23:13:00,
2013-06-14 19:15:00,76.9,60.0,29.92,SW,233,2.0,4.0,56,0.00,,,0.00,Wunderground v.1.15,2013-06-14 23:15:00,
2013-06-14 19:16:00,76.8,57.3,29.92,NW,321,1.0,4.0,51,0.00,,,0.00,Wunderground v.1.15,2013-06-14 23:16:00,
2013-06-14 19:18:00,76.7,57.2,29.92,NW,304,2.0,4.0,51,0.00,,,0.00,Wunderground v.1.15,2013-06-14 23:18:00,
2013-06-14 19:19:00,76.7,57.2,29.92,NNW,345,3.0,4.0,51,0.00,,,0.00,Wunderground v.1.15,2013-06-14 23:19:00,
2013-06-14 19:20:00,76.6,57.7,29.92,NW,311,1.0,2.0,52,0.00,,,0.00,Wunderground v.1.15,2013-06-14 23:20:00,
2013-06-14 19:21:00,76.5,57.6,29.92,ENE,66,1.0,2.0,52,0.00,,,0.00,Wunderground v.1.15,2013-06-14 23:21:00,
2013-06-14 19:24:00,76.4,56.9,29.92,NW,308,1.0,2.0,51,0.00,,,0.00,Wunderground v.1.15,2013-06-14 23:24:00,
2013-06-14 19:25:00,76.4,58.5,29.93,NW,315,0.0,2.0,54,0.00,,,0.00,Wunderground v.1.15,2013-06-14 23:25:00,
2013-06-14 19:26:00,76.4,59.0,29.93,NW,314,0.0,2.0,55,0.00,,,0.00,Wunderground v.1.15,2013-06-14 23:26:00,
2013-06-14 19:29:00,76.2,57.8,29.93,NW,315,0.0,2.0,53,0.00,,,0.00,Wunderground v.1.15,2013-06-14 23:29:00,
2013-06-14 19:31:00,76.1,57.7,29.93,NW,315,0.0,1.0,53,0.00,,,0.00,Wunderground v.1.15,2013-06-14 23:31:00,
2013-06-14 19:32:00,76.0,57.1,29.93,NE,52,2.0,2.0,52,0.00,,,0.00,Wunderground v.1.15,2013-06-14 23:32:00,
2013-06-14 19:34:00,75.8,60.0,29.93,North,11,0.0,2.0,58,0.00,,,0.00,Wunderground v.1.15,2013-06-14 23:34:00,
2013-06-14 19:36:00,75.7,59.9,29.93,NNW,340,0.0,2.0,58,0.00,,,0.00,Wunderground v.1.15,2013-06-14 23:36:00,
2013-06-14 19:37:00,75.6,58.8,29.93,NNW,340,0.0,2.0,56,0.00,,,0.00,Wunderground v.1.15,2013-06-14 23:37:00,
2013-06-14 19:39:00,75.4,58.6,29.93,NNE,19,1.0,2.0,56,0.00,,,0.00,Wunderground v.1.15,2013-06-14 23:39:00,
2013-06-14 19:41:00,75.3,58.5,29.93,East,100,0.0,1.0,56,0.00,,,0.00,Wunderground v.1.15,2013-06-14 23:41:00,
2013-06-14 19:42:00,75.2,60.8,29.93,East,101,0.0,1.0,61,0.00,,,0.00,Wunderground v.1.15,2013-06-14 23:42:00,
2013-06-14 19:44:00,75.0,60.2,29.93,East,101,0.0,1.0,60,0.00,,,0.00,Wunderground v.1.15,2013-06-14 23:44:00,
2013-06-14 19:46:00,74.8,58.5,29.93,East,101,0.0,1.0,57,0.00,,,0.00,Wunderground v.1.15,2013-06-14 23:46:00,
2013-06-14 19:47:00,74.7,58.9,29.93,East,101,0.0,1.0,58,0.00,,,0.00,Wunderground v.1.15,2013-06-14 23:47:00,
2013-06-14 19:49:00,74.5,60.2,29.93,East,101,0.0,1.0,61,0.00,,,0.00,Wunderground v.1.15,2013-06-14 23:49:00,
2013-06-14 19:50:00,74.4,59.1,29.93,East,101,0.0,0.0,59,0.00,,,0.00,Wunderground v.1.15,2013-06-14 23:50:00,
2013-06-14 19:51:00,74.4,59.1,29.93,East,101,0.0,0.0,59,0.00,,,0.00,Wunderground v.1.15,2013-06-14 23:51:00,
2013-06-14 19:52:00,74.3,59.5,29.93,East,101,0.0,0.0,60,0.00,,,0.00,Wunderground v.1.15,2013-06-14 23:52:00,
2013-06-14 19:53:00,74.2,59.4,29.93,East,100,0.0,0.0,60,0.00,,,0.00,Wunderground v.1.15,2013-06-14 23:53:00,
2013-06-14 19:54:00,74.0,57.8,29.93,East,101,0.0,0.0,57,0.00,,,0.00,Wunderground v.1.15,2013-06-14 23:54:00,
2013-06-14 19:55:00,73.9,58.2,29.93,ESE,102,0.0,0.0,58,0.00,,,0.00,Wunderground v.1.15,2013-06-14 23:55:00,
2013-06-14 19:56:00,73.8,57.6,29.93,ESE,102,0.0,0.0,57,0.00,,,0.00,Wunderground v.1.15,2013-06-14 23:56:00,
2013-06-14 19:57:00,73.8,58.6,29.93,East,101,0.0,0.0,59,0.00,,,0.00,Wunderground v.1.15,2013-06-14 23:57:00,
2013-06-14 19:58:00,73.8,58.6,29.93,East,101,0.0,0.0,59,0.00,,,0.00,Wunderground v.1.15,2013-06-14 23:58:00,
2013-06-14 19:59:00,73.7,59.4,29.94,East,101,0.0,0.0,61,0.00,,,0.00,Wunderground v.1.15,2013-06-14 23:59:00,
2013-06-14 20:00:00,73.6,59.3,29.94,East,101,0.0,0.0,61,0.00,,,0.00,Wunderground v.1.15,2013-06-15 00:00:00,
2013-06-14 20:01:00,73.6,59.8,29.94,ESE,102,0.0,0.0,62,0.00,,,0.00,Wunderground v.1.15,2013-06-15 00:01:00,
2013-06-14 20:03:00,73.5,58.8,29.94,East,101,0.0,0.0,60,0.00,,,0.00,Wunderground v.1.15,2013-06-15 00:03:00,
2013-06-14 20:05:00,73.4,59.6,29.94,East,101,0.0,0.0,62,0.00,,,0.00,Wunderground v.1.15,2013-06-15 00:05:00,
2013-06-14 20:06:00,73.2,59.4,29.94,ESE,102,0.0,0.0,62,0.00,,,0.00,Wunderground v.1.15,2013-06-15 00:06:00,
2013-06-14 20:08:00,73.1,59.3,29.94,ESE,102,0.0,0.0,62,0.00,,,0.00,Wunderground v.1.15,2013-06-15 00:08:00,
2013-06-14 20:10:00,72.9,59.6,29.94,ESE,102,0.0,0.0,63,0.00,,,0.00,Wunderground v.1.15,2013-06-15 00:10:00,
2013-06-14 20:11:00,72.8,59.5,29.94,ESE,102,0.0,0.0,63,0.00,,,0.00,Wunderground v.1.15,2013-06-15 00:11:00,
2013-06-14 20:13:00,72.6,59.7,29.94,East,101,0.0,0.0,64,0.00,,,0.00,Wunderground v.1.15,2013-06-15 00:13:00,
2013-06-14 20:14:00,72.5,60.1,29.94,ESE,102,0.0,0.0,65,0.00,,,0.00,Wunderground v.1.15,2013-06-15 00:14:00,
2013-06-14 20:15:00,72.3,59.4,29.94,ESE,102,0.0,0.0,64,0.00,,,0.00,Wunderground v.1.15,2013-06-15 00:15:00,
2013-06-14 20:16:00,72.2,58.0,29.94,ESE,102,0.0,0.0,61,0.00,,,0.00,Wunderground v.1.15,2013-06-15 00:16:00,
2013-06-14 20:18:00,72.1,57.4,29.94,ESE,102,0.0,0.0,60,0.00,,,0.00,Wunderground v.1.15,2013-06-15 00:18:00,
2013-06-14 20:19:00,72.1,60.1,29.94,ESE,102,0.0,0.0,66,0.00,,,0.00,Wunderground v.1.15,2013-06-15 00:19:00,
2013-06-14 20:20:00,72.1,60.1,29.94,ESE,102,0.0,0.0,66,0.00,,,0.00,Wunderground v.1.15,2013-06-15 00:20:00,
2013-06-14 20:21:00,71.9,59.5,29.94,ESE,102,0.0,0.0,65,0.00,,,0.00,Wunderground v.1.15,2013-06-15 00:21:00,
2013-06-14 20:22:00,71.9,59.1,29.94,ESE,102,0.0,0.0,64,0.00,,,0.00,Wunderground v.1.15,2013-06-15 00:22:00,
2013-06-14 20:23:00,71.8,57.6,29.94,ESE,102,0.0,0.0,61,0.00,,,0.00,Wunderground v.1.15,2013-06-15 00:23:00,
2013-06-14 20:25:00,71.7,58.9,29.94,East,101,0.0,0.0,64,0.00,,,0.00,Wunderground v.1.15,2013-06-15 00:25:00,
2013-06-14 20:26:00,71.7,59.3,29.94,ESE,102,0.0,0.0,65,0.00,,,0.00,Wunderground v.1.15,2013-06-15 00:26:00,
2013-06-14 20:27:00,71.6,59.6,29.94,ESE,102,0.0,0.0,66,0.00,,,0.00,Wunderground v.1.15,2013-06-15 00:27:00,
2013-06-14 20:30:00,71.3,59.4,29.94,East,101,0.0,0.0,66,0.00,,,0.00,Wunderground v.1.15,2013-06-15 00:30:00,
2013-06-14 20:32:00,71.2,59.3,29.94,ESE,102,0.0,0.0,66,0.00,,,0.00,Wunderground v.1.15,2013-06-15 00:32:00,
2013-06-14 20:35:00,71.0,59.9,29.94,ESE,102,0.0,0.0,68,0.00,,,0.00,Wunderground v.1.15,2013-06-15 00:35:00,
2013-06-14 20:36:00,71.0,61.5,29.94,East,101,0.0,0.0,72,0.00,,,0.00,Wunderground v.1.15,2013-06-15 00:36:00,
2013-06-14 20:37:00,70.9,61.0,29.94,ESE,102,0.0,0.0,71,0.00,,,0.00,Wunderground v.1.15,2013-06-15 00:37:00,
2013-06-14 20:38:00,70.8,60.5,29.94,East,101,0.0,0.0,70,0.00,,,0.00,Wunderground v.1.15,2013-06-15 00:38:00,
2013-06-14 20:40:00,70.7,60.0,29.94,NW,304,0.0,0.0,69,0.00,,,0.00,Wunderground v.1.15,2013-06-15 00:40:00,
2013-06-14 20:41:00,70.7,59.2,29.94,NW,305,0.0,0.0,67,0.00,,,0.00,Wunderground v.1.15,2013-06-15 00:41:00,
2013-06-14 20:42:00,70.7,58.4,29.94,NW,304,0.0,0.0,65,0.00,,,0.00,Wunderground v.1.15,2013-06-15 00:42:00,
2013-06-14 20:43:00,70.6,59.1,29.94,NW,305,0.0,0.0,67,0.00,,,0.00,Wunderground v.1.15,2013-06-15 00:43:00,
2013-06-14 20:45:00,70.5,58.6,29.94,NW,305,0.0,0.0,66,0.00,,,0.00,Wunderground v.1.15,2013-06-15 00:45:00,
2013-06-14 20:46:00,70.4,58.5,29.94,NW,304,0.0,0.0,66,0.00,,,0.00,Wunderground v.1.15,2013-06-15 00:46:00,
2013-06-14 20:47:00,70.4,58.5,29.94,NW,304,0.0,0.0,66,0.00,,,0.00,Wunderground v.1.15,2013-06-15 00:47:00,
2013-06-14 20:48:00,70.3,58.4,29.94,NW,305,0.0,0.0,66,0.00,,,0.00,Wunderground v.1.15,2013-06-15 00:48:00,
2013-06-14 20:50:00,70.0,57.7,29.94,NW,304,0.0,0.0,65,0.00,,,0.00,Wunderground v.1.15,2013-06-15 00:50:00,
2013-06-14 20:51:00,70.0,57.7,29.94,NW,305,0.0,0.0,65,0.00,,,0.00,Wunderground v.1.15,2013-06-15 00:51:00,
2013-06-14 20:52:00,69.9,58.0,29.94,NW,304,0.0,0.0,66,0.00,,,0.00,Wunderground v.1.15,2013-06-15 00:52:00,
2013-06-14 20:53:00,69.8,58.3,29.94,NW,304,0.0,0.0,67,0.00,,,0.00,Wunderground v.1.15,2013-06-15 00:53:00,
2013-06-14 20:56:00,69.6,58.2,29.94,NW,304,0.0,0.0,67,0.00,,,0.00,Wunderground v.1.15,2013-06-15 00:56:00,
2013-06-14 20:57:00,69.5,58.1,29.94,NW,304,0.0,0.0,67,0.00,,,0.00,Wunderground v.1.15,2013-06-15 00:57:00,
2013-06-14 20:58:00,69.4,58.0,29.94,NW,304,0.0,0.0,67,0.00,,,0.00,Wunderground v.1.15,2013-06-15 00:58:00,
2013-06-14 21:01:00,69.1,58.1,29.95,NW,304,0.0,0.0,68,0.00,,,0.00,Wunderground v.1.15,2013-06-15 01:01:00,
2013-06-14 21:02:00,69.0,58.0,29.95,NW,304,0.0,0.0,68,0.00,,,0.00,Wunderground v.1.15,2013-06-15 01:02:00,
2013-06-14 21:04:00,68.8,57.8,29.94,NW,305,0.0,0.0,68,0.00,,,0.00,Wunderground v.1.15,2013-06-15 01:04:00,
2013-06-14 21:06:00,68.6,57.6,29.94,NW,304,0.0,0.0,68,0.00,,,0.00,Wunderground v.1.15,2013-06-15 01:06:00,
2013-06-14 21:07:00,68.6,57.6,29.94,NW,304,0.0,0.0,68,0.00,,,0.00,Wunderground v.1.15,2013-06-15 01:07:00,
2013-06-14 21:09:00,68.3,58.1,29.94,NW,304,0.0,0.0,70,0.00,,,0.00,Wunderground v.1.15,2013-06-15 01:09:00,
2013-06-14 21:11:00,68.1,57.9,29.94,NW,304,0.0,0.0,70,0.00,,,0.00,Wunderground v.1.15,2013-06-15 01:11:00,
2013-06-14 21:12:00,68.0,57.8,29.94,NNE,19,0.0,0.0,70,0.00,,,0.00,Wunderground v.1.15,2013-06-15 01:12:00,
2013-06-14 21:13:00,68.0,58.2,29.94,NNE,14,0.0,0.0,71,0.00,,,0.00,Wunderground v.1.15,2013-06-15 01:13:00,
2013-06-14 21:14:00,67.9,58.1,29.94,NNE,14,0.0,0.0,71,0.00,,,0.00,Wunderground v.1.15,2013-06-15 01:14:00,
2013-06-14 21:17:00,67.9,58.1,29.94,NNE,15,0.0,0.0,71,0.00,,,0.00,Wunderground v.1.15,2013-06-15 01:17:00,
2013-06-14 21:18:00,67.9,58.5,29.94,NNE,15,0.0,0.0,72,0.00,,,0.00,Wunderground v.1.15,2013-06-15 01:18:00,
2013-06-14 21:19:00,67.9,58.1,29.94,NNW,342,0.0,1.0,71,0.00,,,0.00,Wunderground v.1.15,2013-06-15 01:19:00,
2013-06-14 21:20:00,67.9,58.1,29.94,NNW,342,0.0,0.0,71,0.00,,,0.00,Wunderground v.1.15,2013-06-15 01:20:00,
2013-06-14 21:22:00,67.8,57.7,29.94,NNW,342,0.0,1.0,70,0.00,,,0.00,Wunderground v.1.15,2013-06-15 01:22:00,
2013-06-14 21:23:00,67.9,57.8,29.94,NNW,342,0.0,1.0,70,0.00,,,0.00,Wunderground v.1.15,2013-06-15 01:23:00,
2013-06-14 21:24:00,68.0,58.2,29.94,NNE,23,1.0,2.0,71,0.00,,,0.00,Wunderground v.1.15,2013-06-15 01:24:00,
2013-06-14 21:25:00,68.0,57.8,29.94,NNE,23,1.0,2.0,70,0.00,,,0.00,Wunderground v.1.15,2013-06-15 01:25:00,
2013-06-14 21:27:00,68.0,58.2,29.94,NNE,23,0.0,2.0,71,0.00,,,0.00,Wunderground v.1.15,2013-06-15 01:27:00,
2013-06-14 21:28:00,68.0,57.8,29.94,NNE,23,0.0,2.0,70,0.00,,,0.00,Wunderground v.1.15,2013-06-15 01:28:00,
2013-06-14 21:29:00,68.0,58.2,29.95,NNE,22,0.0,2.0,71,0.00,,,0.00,Wunderground v.1.15,2013-06-15 01:29:00,
2013-06-14 21:30:00,68.0,59.0,29.95,NNE,23,0.0,1.0,73,0.00,,,0.00,Wunderground v.1.15,2013-06-15 01:30:00,
2013-06-14 21:32:00,68.0,58.6,29.95,NNE,21,0.0,1.0,72,0.00,,,0.00,Wunderground v.1.15,2013-06-15 01:32:00,
2013-06-14 21:33:00,67.9,58.5,29.95,NNE,21,0.0,1.0,72,0.00,,,0.00,Wunderground v.1.15,2013-06-15 01:33:00,
2013-06-14 21:34:00,67.8,58.1,29.95,NNE,23,0.0,1.0,71,0.00,,,0.00,Wunderground v.1.15,2013-06-15 01:34:00,
2013-06-14 21:36:00,67.7,58.3,29.95,NNE,22,0.0,1.0,72,0.00,,,0.00,Wunderground v.1.15,2013-06-15 01:36:00,
2013-06-14 21:38:00,67.6,58.2,29.95,NNE,21,0.0,1.0,72,0.00,,,0.00,Wunderground v.1.15,2013-06-15 01:38:00,
2013-06-14 21:39:00,67.5,58.9,29.95,NNE,23,0.0,1.0,74,0.00,,,0.00,Wunderground v.1.15,2013-06-15 01:39:00,
2013-06-14 21:40:00,67.4,58.4,29.95,NNE,23,0.0,0.0,73,0.00,,,0.00,Wunderground v.1.15,2013-06-15 01:40:00,
2013-06-14 21:41:00,67.3,58.0,29.95,NNE,21,0.0,1.0,72,0.00,,,0.00,Wunderground v.1.15,2013-06-15 01:41:00,
2013-06-14 21:43:00,67.1,57.8,29.96,NNE,23,0.0,1.0,72,0.00,,,0.00,Wunderground v.1.15,2013-06-15 01:43:00,
2013-06-14 21:44:00,67.1,57.8,29.96,NNE,21,0.0,1.0,72,0.00,,,0.00,Wunderground v.1.15,2013-06-15 01:44:00,
2013-06-14 21:45:00,67.1,57.8,29.96,NNE,23,0.0,1.0,72,0.00,,,0.00,Wunderground v.1.15,2013-06-15 01:45:00,
2013-06-14 21:47:00,66.9,57.6,29.96,NNE,22,0.0,1.0,72,0.00,,,0.00,Wunderground v.1.15,2013-06-15 01:47:00,
2013-06-14 21:49:00,66.8,57.5,29.96,NNE,21,0.0,1.0,72,0.00,,,0.00,Wunderground v.1.15,2013-06-15 01:49:00,
2013-06-14 21:50:00,66.8,57.5,29.96,NNE,23,0.0,0.0,72,0.00,,,0.00,Wunderground v.1.15,2013-06-15 01:50:00,
2013-06-14 21:52:00,66.6,57.3,29.96,NNE,23,0.0,0.0,72,0.00,,,0.00,Wunderground v.1.15,2013-06-15 01:52:00,
2013-06-14 21:54:00,66.5,57.2,29.96,NNE,21,0.0,0.0,72,0.00,,,0.00,Wunderground v.1.15,2013-06-15 01:54:00,
2013-06-14 21:55:00,66.4,57.5,29.96,NNE,23,0.0,0.0,73,0.00,,,0.00,Wunderground v.1.15,2013-06-15 01:55:00,
2013-06-14 21:57:00,66.3,57.8,29.96,NNE,22,0.0,0.0,74,0.00,,,0.00,Wunderground v.1.15,2013-06-15 01:57:00,
2013-06-14 21:59:00,66.2,57.7,29.97,NNE,23,0.0,1.0,74,0.00,,,0.00,Wunderground v.1.15,2013-06-15 01:59:00,
2013-06-14 22:00:00,66.2,57.7,29.97,NNE,23,0.0,0.0,74,0.00,,,0.00,Wunderground v.1.15,2013-06-15 02:00:00,
2013-06-14 22:02:00,66.2,58.0,29.97,NNE,21,0.0,0.0,75,0.00,,,0.00,Wunderground v.1.15,2013-06-15 02:02:00,
2013-06-14 22:04:00,66.1,57.9,29.97,NNE,23,0.0,0.0,75,0.00,,,0.00,Wunderground v.1.15,2013-06-15 02:04:00,
2013-06-14 22:05:00,66.1,57.9,29.97,NNE,22,0.0,0.0,75,0.00,,,0.00,Wunderground v.1.15,2013-06-15 02:05:00,
2013-06-14 22:06:00,66.0,57.8,29.97,NNE,23,0.0,0.0,75,0.00,,,0.00,Wunderground v.1.15,2013-06-15 02:06:00,
2013-06-14 22:07:00,65.9,57.7,29.97,NNE,23,0.0,0.0,75,0.00,,,0.00,Wunderground v.1.15,2013-06-15 02:07:00,
2013-06-14 22:10:00,65.8,57.7,29.97,NNE,23,0.0,0.0,75,0.00,,,0.00,Wunderground v.1.15,2013-06-15 02:10:00,
2013-06-14 22:11:00,65.7,57.2,29.97,NNE,23,0.0,0.0,74,0.00,,,0.00,Wunderground v.1.15,2013-06-15 02:11:00,
2013-06-14 22:12:00,65.7,57.9,29.97,NNE,22,0.0,0.0,76,0.00,,,0.00,Wunderground v.1.15,2013-06-15 02:12:00,
2013-06-14 22:15:00,65.7,58.3,29.97,NNE,23,0.0,0.0,77,0.00,,,0.00,Wunderground v.1.15,2013-06-15 02:15:00,
2013-06-14 22:16:00,65.6,58.2,29.97,NNE,21,0.0,0.0,77,0.00,,,0.00,Wunderground v.1.15,2013-06-15 02:16:00,
2013-06-14 22:18:00,65.6,58.9,29.97,NNE,23,0.0,1.0,79,0.00,,,0.00,Wunderground v.1.15,2013-06-15 02:18:00,
2013-06-14 22:20:00,65.6,58.6,29.97,NNE,21,0.0,0.0,78,0.00,,,0.00,Wunderground v.1.15,2013-06-15 02:20:00,
2013-06-14 22:21:00,65.5,58.5,29.98,NNE,22,0.0,0.0,78,0.00,,,0.00,Wunderground v.1.15,2013-06-15 02:21:00,
2013-06-14 22:23:00,65.4,58.0,29.97,NNE,21,0.0,0.0,77,0.00,,,0.00,Wunderground v.1.15,2013-06-15 02:23:00,
2013-06-14 22:25:00,65.4,57.6,29.97,NNE,21,0.0,0.0,76,0.00,,,0.00,Wunderground v.1.15,2013-06-15 02:25:00,
2013-06-14 22:26:00,65.3,57.9,29.97,NNE,23,0.0,0.0,77,0.00,,,0.00,Wunderground v.1.15,2013-06-15 02:26:00,
2013-06-14 22:28:00,65.2,57.8,29.97,NNE,21,0.0,0.0,77,0.00,,,0.00,Wunderground v.1.15,2013-06-15 02:28:00,
2013-06-14 22:30:00,65.3,58.6,29.97,NNE,21,0.0,0.0,79,0.00,,,0.00,Wunderground v.1.15,2013-06-15 02:30:00,
2013-06-14 22:31:00,65.3,58.6,29.97,NNE,21,0.0,0.0,79,0.00,,,0.00,Wunderground v.1.15,2013-06-15 02:31:00,
2013-06-14 22:32:00,65.3,58.6,29.97,NNE,21,0.0,0.0,79,0.00,,,0.00,Wunderground v.1.15,2013-06-15 02:32:00,
2013-06-14 22:33:00,65.3,58.6,29.97,NNE,22,0.0,0.0,79,0.00,,,0.00,Wunderground v.1.15,2013-06-15 02:33:00,
2013-06-14 22:34:00,65.3,58.3,29.97,NNE,21,0.0,0.0,78,0.00,,,0.00,Wunderground v.1.15,2013-06-15 02:34:00,
2013-06-14 22:35:00,65.2,57.8,29.98,NNE,23,0.0,0.0,77,0.00,,,0.00,Wunderground v.1.15,2013-06-15 02:35:00,
2013-06-14 22:36:00,65.2,57.8,29.98,NNE,23,0.0,0.0,77,0.00,,,0.00,Wunderground v.1.15,2013-06-15 02:36:00,
2013-06-14 22:37:00,65.2,58.5,29.98,NNE,23,0.0,0.0,79,0.00,,,0.00,Wunderground v.1.15,2013-06-15 02:37:00,
2013-06-14 22:39:00,65.2,58.9,29.98,NNE,23,0.0,0.0,80,0.00,,,0.00,Wunderground v.1.15,2013-06-15 02:39:00,
2013-06-14 22:40:00,65.2,58.9,29.98,NNE,23,0.0,0.0,80,0.00,,,0.00,Wunderground v.1.15,2013-06-15 02:40:00,
2013-06-14 22:41:00,65.1,58.8,29.98,NNE,23,0.0,0.0,80,0.00,,,0.00,Wunderground v.1.15,2013-06-15 02:41:00,
2013-06-14 22:42:00,65.1,58.4,29.98,NNE,23,0.0,0.0,79,0.00,,,0.00,Wunderground v.1.15,2013-06-15 02:42:00,
2013-06-14 22:44:00,65.1,58.8,29.98,NNE,22,0.0,0.0,80,0.00,,,0.00,Wunderground v.1.15,2013-06-15 02:44:00,
2013-06-14 22:45:00,65.1,58.8,29.98,NNE,21,0.0,0.0,80,0.00,,,0.00,Wunderground v.1.15,2013-06-15 02:45:00,
2013-06-14 22:46:00,65.1,58.8,29.98,NNE,23,0.0,0.0,80,0.00,,,0.00,Wunderground v.1.15,2013-06-15 02:46:00,
2013-06-14 22:47:00,65.1,59.1,29.98,NNE,23,0.0,0.0,81,0.00,,,0.00,Wunderground v.1.15,2013-06-15 02:47:00,
2013-06-14 22:49:00,65.0,58.7,29.98,NNE,23,0.0,0.0,80,0.00,,,0.00,Wunderground v.1.15,2013-06-15 02:49:00,
2013-06-14 22:51:00,65.0,58.3,29.98,NNE,23,0.0,0.0,79,0.00,,,0.00,Wunderground v.1.15,2013-06-15 02:51:00,
2013-06-14 22:52:00,64.9,58.6,29.98,NNE,23,0.0,0.0,80,0.00,,,0.00,Wunderground v.1.15,2013-06-15 02:52:00,
2013-06-14 22:54:00,64.9,57.9,29.98,NNE,22,0.0,0.0,78,0.00,,,0.00,Wunderground v.1.15,2013-06-15 02:54:00,
2013-06-14 22:56:00,64.9,58.6,29.98,NNE,23,0.0,0.0,80,0.00,,,0.00,Wunderground v.1.15,2013-06-15 02:56:00,
2013-06-14 22:57:00,64.8,58.5,29.98,NNE,23,0.0,0.0,80,0.00,,,0.00,Wunderground v.1.15,2013-06-15 02:57:00,
2013-06-14 22:59:00,64.8,58.1,29.98,NNE,23,0.0,0.0,79,0.00,,,0.00,Wunderground v.1.15,2013-06-15 02:59:00,
2013-06-14 23:01:00,64.7,58.7,29.99,NNE,23,0.0,0.0,81,0.00,,,0.00,Wunderground v.1.15,2013-06-15 03:01:00,
2013-06-14 23:02:00,64.7,58.7,29.99,NNE,23,0.0,0.0,81,0.00,,,0.00,Wunderground v.1.15,2013-06-15 03:02:00,
2013-06-14 23:04:00,64.6,58.3,29.99,NNE,23,0.0,1.0,80,0.00,,,0.00,Wunderground v.1.15,2013-06-15 03:04:00,
2013-06-14 23:05:00,64.6,58.3,29.99,NNE,23,0.0,1.0,80,0.00,,,0.00,Wunderground v.1.15,2013-06-15 03:05:00,
2013-06-14 23:06:00,64.6,59.0,29.99,NNE,23,0.0,1.0,82,0.00,,,0.00,Wunderground v.1.15,2013-06-15 03:06:00,
2013-06-14 23:07:00,64.7,58.7,30.00,NNE,23,0.0,1.0,81,0.00,,,0.00,Wunderground v.1.15,2013-06-15 03:07:00,
2013-06-14 23:09:00,64.6,58.3,29.99,NNE,23,0.0,1.0,80,0.00,,,0.00,Wunderground v.1.15,2013-06-15 03:09:00,
2013-06-14 23:10:00,64.5,58.2,29.99,NNE,22,0.0,0.0,80,0.00,,,0.00,Wunderground v.1.15,2013-06-15 03:10:00,
2013-06-14 23:11:00,64.5,57.8,29.99,NNE,21,0.0,0.0,79,0.00,,,0.00,Wunderground v.1.15,2013-06-15 03:11:00,
2013-06-14 23:12:00,64.5,58.2,29.99,NNE,23,0.0,0.0,80,0.00,,,0.00,Wunderground v.1.15,2013-06-15 03:12:00,
2013-06-14 23:15:00,64.4,58.1,30.00,NNE,23,0.0,1.0,80,0.00,,,0.00,Wunderground v.1.15,2013-06-15 03:15:00,
2013-06-14 23:16:00,64.3,58.0,29.99,NNE,23,0.0,1.0,80,0.00,,,0.00,Wunderground v.1.15,2013-06-15 03:16:00,
2013-06-14 23:17:00,64.2,57.5,30.00,NNE,23,0.0,1.0,79,0.00,,,0.00,Wunderground v.1.15,2013-06-15 03:17:00,
2013-06-14 23:20:00,64.1,57.5,30.00,SW,235,1.0,1.0,79,0.00,,,0.00,Wunderground v.1.15,2013-06-15 03:20:00,
2013-06-14 23:21:00,64.1,57.5,30.00,SW,235,1.0,1.0,79,0.00,,,0.00,Wunderground v.1.15,2013-06-15 03:21:00,
2013-06-14 23:22:00,64.0,57.7,30.00,SW,232,1.0,2.0,80,0.00,,,0.00,Wunderground v.1.15,2013-06-15 03:22:00,
2013-06-14 23:25:00,63.8,57.9,30.01,SW,233,0.0,2.0,81,0.00,,,0.00,Wunderground v.1.15,2013-06-15 03:25:00,
2013-06-14 23:26:00,63.7,57.8,30.01,SW,233,1.0,2.0,81,0.00,,,0.00,Wunderground v.1.15,2013-06-15 03:26:00,
2013-06-14 23:27:00,63.6,58.0,30.01,SW,233,0.0,2.0,82,0.00,,,0.00,Wunderground v.1.15,2013-06-15 03:27:00,
2013-06-14 23:28:00,63.6,58.3,30.01,SW,233,0.0,2.0,83,0.00,,,0.00,Wunderground v.1.15,2013-06-15 03:28:00,
2013-06-14 23:31:00,63.4,58.1,30.00,SW,233,0.0,1.0,83,0.00,,,0.00,Wunderground v.1.15,2013-06-15 03:31:00,
2013-06-14 23:32:00,63.4,58.1,30.00,SW,233,0.0,1.0,83,0.00,,,0.00,Wunderground v.1.15,2013-06-15 03:32:00,
2013-06-14 23:33:00,63.3,58.0,30.00,SW,233,0.0,1.0,83,0.00,,,0.00,Wunderground v.1.15,2013-06-15 03:33:00,
2013-06-14 23:36:00,63.2,58.3,30.00,SW,233,0.0,1.0,84,0.00,,,0.00,Wunderground v.1.15,2013-06-15 03:36:00,
2013-06-14 23:37:00,63.1,58.2,30.00,SW,233,0.0,1.0,84,0.00,,,0.00,Wunderground v.1.15,2013-06-15 03:37:00,
2013-06-14 23:39:00,63.1,58.2,30.00,SW,233,0.0,1.0,84,0.00,,,0.00,Wunderground v.1.15,2013-06-15 03:39:00,
2013-06-14 23:41:00,62.9,58.0,30.00,SW,233,1.0,1.0,84,0.00,,,0.00,Wunderground v.1.15,2013-06-15 03:41:00,
2013-06-14 23:42:00,62.9,58.0,30.01,SW,233,1.0,1.0,84,0.00,,,0.00,Wunderground v.1.15,2013-06-15 03:42:00,
2013-06-14 23:44:00,62.8,58.2,30.01,SW,233,1.0,1.0,85,0.00,,,0.00,Wunderground v.1.15,2013-06-15 03:44:00,
2013-06-14 23:46:00,62.7,58.1,30.01,SW,233,0.0,1.0,85,0.00,,,0.00,Wunderground v.1.15,2013-06-15 03:46:00,
2013-06-14 23:47:00,62.7,57.8,30.01,SW,233,0.0,1.0,84,0.00,,,0.00,Wunderground v.1.15,2013-06-15 03:47:00,
2013-06-14 23:48:00,62.6,57.7,30.01,SW,233,0.0,1.0,84,0.00,,,0.00,Wunderground v.1.15,2013-06-15 03:48:00,
2013-06-14 23:50:00,62.5,57.6,30.01,SW,233,0.0,0.0,84,0.00,,,0.00,Wunderground v.1.15,2013-06-15 03:50:00,
2013-06-14 23:52:00,62.4,57.5,30.01,SW,233,0.0,0.0,84,0.00,,,0.00,Wunderground v.1.15,2013-06-15 03:52:00,
2013-06-14 23:53:00,62.4,57.5,30.01,SW,233,0.0,0.0,84,0.00,,,0.00,Wunderground v.1.15,2013-06-15 03:53:00,
2013-06-14 23:55:00,62.3,57.7,30.01,SW,233,0.0,0.0,85,0.00,,,0.00,Wunderground v.1.15,2013-06-15 03:55:00,
2013-06-14 23:57:00,62.2,57.6,30.01,SW,233,0.0,0.0,85,0.00,,,0.00,Wunderground v.1.15,2013-06-15 03:57:00,
2013-06-14 23:58:00,62.2,58.0,30.01,SW,233,0.0,0.0,86,0.00,,,0.00,Wunderground v.1.15,2013-06-15 03:58:00,